<?xml version="1.0" encoding="UTF-8" standalone="no" ?>
<gpx xmlns="http://www.topografix.com/GPX/1/1" xmlns:xsi="http://www.w3.org/2001/XMLSchema-instance" xsi:schemaLocation="http://www.topografix.com/GPX/1/1 http://www.topografix.com/GPX/1/1/gpx.xsd" version="1.1" creator="VisuGPX - https://www.visugpx.com">
  <metadata>
    <name>Pointe du raz 4</name>
    <desc><![CDATA[4eme jours: Primelin - Audierne]]></desc>
  </metadata>
  <trk>
    <name><![CDATA[28-MAI-17 04:49:57 PM]]></name>
    <trkseg>
      <trkpt lat="48.0143" lon="-4.53967">
        <ele>-0.34</ele>
        <time>2017-05-28T11:40:34Z</time>
      </trkpt>
      <trkpt lat="48.01431" lon="-4.53971">
        <ele>3.02</ele>
        <time>2017-05-28T11:40:56Z</time>
      </trkpt>
      <trkpt lat="48.0143" lon="-4.53972">
        <ele>3.02</ele>
        <time>2017-05-28T11:41:29Z</time>
      </trkpt>
      <trkpt lat="48.0143" lon="-4.53973">
        <ele>3.02</ele>
        <time>2017-05-28T11:42:00Z</time>
      </trkpt>
      <trkpt lat="48.01428" lon="-4.53975">
        <ele>3.98</ele>
        <time>2017-05-28T11:42:15Z</time>
      </trkpt>
      <trkpt lat="48.01428" lon="-4.53973">
        <ele>3.98</ele>
        <time>2017-05-28T11:42:45Z</time>
      </trkpt>
      <trkpt lat="48.01428" lon="-4.53973">
        <ele>3.02</ele>
        <time>2017-05-28T11:43:11Z</time>
      </trkpt>
      <trkpt lat="48.01428" lon="-4.53973">
        <ele>2.06</ele>
        <time>2017-05-28T11:43:36Z</time>
      </trkpt>
      <trkpt lat="48.01428" lon="-4.53973">
        <ele>2.06</ele>
        <time>2017-05-28T11:44:06Z</time>
      </trkpt>
      <trkpt lat="48.01427" lon="-4.53971">
        <ele>2.54</ele>
        <time>2017-05-28T11:44:24Z</time>
      </trkpt>
      <trkpt lat="48.01415" lon="-4.53964">
        <ele>1.1</ele>
        <time>2017-05-28T11:44:36Z</time>
      </trkpt>
      <trkpt lat="48.01414" lon="-4.53965">
        <ele>1.1</ele>
        <time>2017-05-28T11:44:57Z</time>
      </trkpt>
      <trkpt lat="48.01413" lon="-4.53964">
        <ele>1.1</ele>
        <time>2017-05-28T11:45:19Z</time>
      </trkpt>
      <trkpt lat="48.01412" lon="-4.53965">
        <ele>0.62</ele>
        <time>2017-05-28T11:45:43Z</time>
      </trkpt>
      <trkpt lat="48.01411" lon="-4.53966">
        <ele>0.62</ele>
        <time>2017-05-28T11:45:52Z</time>
      </trkpt>
      <trkpt lat="48.01403" lon="-4.53974">
        <ele>-0.82</ele>
        <time>2017-05-28T11:45:59Z</time>
      </trkpt>
      <trkpt lat="48.01393" lon="-4.53984">
        <ele>-0.34</ele>
        <time>2017-05-28T11:46:07Z</time>
      </trkpt>
      <trkpt lat="48.01383" lon="-4.53989">
        <ele>-0.34</ele>
        <time>2017-05-28T11:46:14Z</time>
      </trkpt>
      <trkpt lat="48.0138" lon="-4.53992">
        <ele>0.14</ele>
        <time>2017-05-28T11:46:17Z</time>
      </trkpt>
      <trkpt lat="48.01367" lon="-4.54003">
        <ele>3.02</ele>
        <time>2017-05-28T11:46:29Z</time>
      </trkpt>
      <trkpt lat="48.01355" lon="-4.54013">
        <ele>4.94</ele>
        <time>2017-05-28T11:46:41Z</time>
      </trkpt>
      <trkpt lat="48.0134" lon="-4.54027">
        <ele>5.42</ele>
        <time>2017-05-28T11:46:53Z</time>
      </trkpt>
      <trkpt lat="48.01325" lon="-4.54039">
        <ele>5.91</ele>
        <time>2017-05-28T11:47:06Z</time>
      </trkpt>
      <trkpt lat="48.01324" lon="-4.54039">
        <ele>5.42</ele>
        <time>2017-05-28T11:47:07Z</time>
      </trkpt>
      <trkpt lat="48.01306" lon="-4.54052">
        <ele>2.54</ele>
        <time>2017-05-28T11:47:22Z</time>
      </trkpt>
      <trkpt lat="48.01293" lon="-4.5406">
        <ele>3.5</ele>
        <time>2017-05-28T11:47:33Z</time>
      </trkpt>
      <trkpt lat="48.0129" lon="-4.54063">
        <ele>2.54</ele>
        <time>2017-05-28T11:47:37Z</time>
      </trkpt>
      <trkpt lat="48.0128" lon="-4.5407">
        <ele>2.06</ele>
        <time>2017-05-28T11:47:50Z</time>
      </trkpt>
      <trkpt lat="48.01271" lon="-4.54077">
        <ele>2.06</ele>
        <time>2017-05-28T11:47:58Z</time>
      </trkpt>
      <trkpt lat="48.01249" lon="-4.54082">
        <ele>3.02</ele>
        <time>2017-05-28T11:48:13Z</time>
      </trkpt>
      <trkpt lat="48.01234" lon="-4.5408">
        <ele>2.54</ele>
        <time>2017-05-28T11:48:25Z</time>
      </trkpt>
      <trkpt lat="48.01219" lon="-4.54082">
        <ele>1.1</ele>
        <time>2017-05-28T11:48:36Z</time>
      </trkpt>
      <trkpt lat="48.01207" lon="-4.54082">
        <ele>-0.34</ele>
        <time>2017-05-28T11:48:46Z</time>
      </trkpt>
      <trkpt lat="48.012" lon="-4.5408">
        <ele>-2.27</ele>
        <time>2017-05-28T11:48:52Z</time>
      </trkpt>
      <trkpt lat="48.01197" lon="-4.54081">
        <ele>-2.75</ele>
        <time>2017-05-28T11:48:54Z</time>
      </trkpt>
      <trkpt lat="48.01192" lon="-4.54082">
        <ele>-2.75</ele>
        <time>2017-05-28T11:48:58Z</time>
      </trkpt>
      <trkpt lat="48.01176" lon="-4.54083">
        <ele>-4.19</ele>
        <time>2017-05-28T11:49:07Z</time>
      </trkpt>
      <trkpt lat="48.01159" lon="-4.54081">
        <ele>-3.71</ele>
        <time>2017-05-28T11:49:21Z</time>
      </trkpt>
      <trkpt lat="48.01142" lon="-4.54081">
        <ele>-4.19</ele>
        <time>2017-05-28T11:49:35Z</time>
      </trkpt>
      <trkpt lat="48.01137" lon="-4.5408">
        <ele>-4.19</ele>
        <time>2017-05-28T11:49:40Z</time>
      </trkpt>
      <trkpt lat="48.01131" lon="-4.54082">
        <ele>-4.19</ele>
        <time>2017-05-28T11:49:56Z</time>
      </trkpt>
      <trkpt lat="48.0113" lon="-4.54081">
        <ele>-4.19</ele>
        <time>2017-05-28T11:50:19Z</time>
      </trkpt>
      <trkpt lat="48.01121" lon="-4.54083">
        <ele>-1.79</ele>
        <time>2017-05-28T11:50:33Z</time>
      </trkpt>
      <trkpt lat="48.01115" lon="-4.54081">
        <ele>-1.3</ele>
        <time>2017-05-28T11:50:38Z</time>
      </trkpt>
      <trkpt lat="48.01108" lon="-4.54085">
        <ele>0.14</ele>
        <time>2017-05-28T11:50:51Z</time>
      </trkpt>
      <trkpt lat="48.01107" lon="-4.54086">
        <ele>1.1</ele>
        <time>2017-05-28T11:51:02Z</time>
      </trkpt>
      <trkpt lat="48.01104" lon="-4.54089">
        <ele>1.1</ele>
        <time>2017-05-28T11:51:04Z</time>
      </trkpt>
      <trkpt lat="48.01101" lon="-4.54089">
        <ele>1.58</ele>
        <time>2017-05-28T11:51:08Z</time>
      </trkpt>
      <trkpt lat="48.01103" lon="-4.54104">
        <ele>3.02</ele>
        <time>2017-05-28T11:51:17Z</time>
      </trkpt>
      <trkpt lat="48.01103" lon="-4.54108">
        <ele>3.5</ele>
        <time>2017-05-28T11:51:25Z</time>
      </trkpt>
      <trkpt lat="48.01108" lon="-4.54118">
        <ele>3.5</ele>
        <time>2017-05-28T11:51:32Z</time>
      </trkpt>
      <trkpt lat="48.01107" lon="-4.54132">
        <ele>3.02</ele>
        <time>2017-05-28T11:51:44Z</time>
      </trkpt>
      <trkpt lat="48.01107" lon="-4.54134">
        <ele>3.02</ele>
        <time>2017-05-28T11:51:46Z</time>
      </trkpt>
      <trkpt lat="48.01118" lon="-4.54157">
        <ele>4.94</ele>
        <time>2017-05-28T11:52:03Z</time>
      </trkpt>
      <trkpt lat="48.01119" lon="-4.54161">
        <ele>4.94</ele>
        <time>2017-05-28T11:52:06Z</time>
      </trkpt>
      <trkpt lat="48.01125" lon="-4.54173">
        <ele>4.46</ele>
        <time>2017-05-28T11:52:15Z</time>
      </trkpt>
      <trkpt lat="48.01127" lon="-4.54182">
        <ele>4.46</ele>
        <time>2017-05-28T11:52:20Z</time>
      </trkpt>
      <trkpt lat="48.01123" lon="-4.54192">
        <ele>5.42</ele>
        <time>2017-05-28T11:52:30Z</time>
      </trkpt>
      <trkpt lat="48.01143" lon="-4.54206">
        <ele>7.35</ele>
        <time>2017-05-28T11:52:47Z</time>
      </trkpt>
      <trkpt lat="48.01145" lon="-4.54208">
        <ele>7.35</ele>
        <time>2017-05-28T11:52:49Z</time>
      </trkpt>
      <trkpt lat="48.01145" lon="-4.54213">
        <ele>7.83</ele>
        <time>2017-05-28T11:52:53Z</time>
      </trkpt>
      <trkpt lat="48.01146" lon="-4.54216">
        <ele>7.83</ele>
        <time>2017-05-28T11:52:55Z</time>
      </trkpt>
      <trkpt lat="48.01153" lon="-4.54234">
        <ele>7.35</ele>
        <time>2017-05-28T11:53:10Z</time>
      </trkpt>
      <trkpt lat="48.01153" lon="-4.54238">
        <ele>7.83</ele>
        <time>2017-05-28T11:53:13Z</time>
      </trkpt>
      <trkpt lat="48.01158" lon="-4.54258">
        <ele>11.67</ele>
        <time>2017-05-28T11:53:28Z</time>
      </trkpt>
      <trkpt lat="48.01162" lon="-4.54265">
        <ele>11.67</ele>
        <time>2017-05-28T11:53:35Z</time>
      </trkpt>
      <trkpt lat="48.01167" lon="-4.54268">
        <ele>11.67</ele>
        <time>2017-05-28T11:53:41Z</time>
      </trkpt>
      <trkpt lat="48.0118" lon="-4.54285">
        <ele>11.19</ele>
        <time>2017-05-28T11:53:57Z</time>
      </trkpt>
      <trkpt lat="48.01182" lon="-4.54295">
        <ele>11.19</ele>
        <time>2017-05-28T11:54:05Z</time>
      </trkpt>
      <trkpt lat="48.01183" lon="-4.54303">
        <ele>11.19</ele>
        <time>2017-05-28T11:54:10Z</time>
      </trkpt>
      <trkpt lat="48.01185" lon="-4.54321">
        <ele>10.71</ele>
        <time>2017-05-28T11:54:19Z</time>
      </trkpt>
      <trkpt lat="48.01182" lon="-4.54339">
        <ele>10.23</ele>
        <time>2017-05-28T11:54:30Z</time>
      </trkpt>
      <trkpt lat="48.01188" lon="-4.54353">
        <ele>11.19</ele>
        <time>2017-05-28T11:54:43Z</time>
      </trkpt>
      <trkpt lat="48.0119" lon="-4.5436">
        <ele>11.67</ele>
        <time>2017-05-28T11:54:48Z</time>
      </trkpt>
      <trkpt lat="48.01193" lon="-4.54367">
        <ele>12.15</ele>
        <time>2017-05-28T11:54:54Z</time>
      </trkpt>
      <trkpt lat="48.01195" lon="-4.54372">
        <ele>12.15</ele>
        <time>2017-05-28T11:54:58Z</time>
      </trkpt>
      <trkpt lat="48.01199" lon="-4.54395">
        <ele>11.67</ele>
        <time>2017-05-28T11:55:09Z</time>
      </trkpt>
      <trkpt lat="48.01202" lon="-4.54414">
        <ele>9.27</ele>
        <time>2017-05-28T11:55:20Z</time>
      </trkpt>
      <trkpt lat="48.01204" lon="-4.54421">
        <ele>7.35</ele>
        <time>2017-05-28T11:55:25Z</time>
      </trkpt>
      <trkpt lat="48.01206" lon="-4.54435">
        <ele>6.39</ele>
        <time>2017-05-28T11:55:32Z</time>
      </trkpt>
      <trkpt lat="48.01209" lon="-4.54448">
        <ele>4.46</ele>
        <time>2017-05-28T11:55:40Z</time>
      </trkpt>
      <trkpt lat="48.01209" lon="-4.54455">
        <ele>4.46</ele>
        <time>2017-05-28T11:55:45Z</time>
      </trkpt>
      <trkpt lat="48.01214" lon="-4.54474">
        <ele>5.42</ele>
        <time>2017-05-28T11:55:56Z</time>
      </trkpt>
      <trkpt lat="48.01216" lon="-4.54486">
        <ele>5.91</ele>
        <time>2017-05-28T11:56:03Z</time>
      </trkpt>
      <trkpt lat="48.01219" lon="-4.54514">
        <ele>6.39</ele>
        <time>2017-05-28T11:56:19Z</time>
      </trkpt>
      <trkpt lat="48.01223" lon="-4.54526">
        <ele>6.39</ele>
        <time>2017-05-28T11:56:26Z</time>
      </trkpt>
      <trkpt lat="48.01225" lon="-4.54543">
        <ele>5.42</ele>
        <time>2017-05-28T11:56:36Z</time>
      </trkpt>
      <trkpt lat="48.01227" lon="-4.54559">
        <ele>4.94</ele>
        <time>2017-05-28T11:56:46Z</time>
      </trkpt>
      <trkpt lat="48.01232" lon="-4.54586">
        <ele>3.5</ele>
        <time>2017-05-28T11:57:00Z</time>
      </trkpt>
      <trkpt lat="48.01233" lon="-4.54589">
        <ele>3.98</ele>
        <time>2017-05-28T11:57:02Z</time>
      </trkpt>
      <trkpt lat="48.01234" lon="-4.546">
        <ele>6.87</ele>
        <time>2017-05-28T11:57:07Z</time>
      </trkpt>
      <trkpt lat="48.01235" lon="-4.54607">
        <ele>6.87</ele>
        <time>2017-05-28T11:57:11Z</time>
      </trkpt>
      <trkpt lat="48.01237" lon="-4.54618">
        <ele>6.87</ele>
        <time>2017-05-28T11:57:17Z</time>
      </trkpt>
      <trkpt lat="48.01238" lon="-4.54625">
        <ele>6.87</ele>
        <time>2017-05-28T11:57:20Z</time>
      </trkpt>
      <trkpt lat="48.01242" lon="-4.5465">
        <ele>5.91</ele>
        <time>2017-05-28T11:57:35Z</time>
      </trkpt>
      <trkpt lat="48.01242" lon="-4.54665">
        <ele>5.42</ele>
        <time>2017-05-28T11:57:43Z</time>
      </trkpt>
      <trkpt lat="48.01245" lon="-4.54696">
        <ele>4.94</ele>
        <time>2017-05-28T11:57:59Z</time>
      </trkpt>
      <trkpt lat="48.01246" lon="-4.54722">
        <ele>3.98</ele>
        <time>2017-05-28T11:58:13Z</time>
      </trkpt>
      <trkpt lat="48.01246" lon="-4.54723">
        <ele>3.98</ele>
        <time>2017-05-28T11:58:14Z</time>
      </trkpt>
      <trkpt lat="48.01247" lon="-4.54745">
        <ele>5.42</ele>
        <time>2017-05-28T11:58:26Z</time>
      </trkpt>
      <trkpt lat="48.01247" lon="-4.54774">
        <ele>4.94</ele>
        <time>2017-05-28T11:58:40Z</time>
      </trkpt>
      <trkpt lat="48.01247" lon="-4.54785">
        <ele>4.46</ele>
        <time>2017-05-28T11:58:46Z</time>
      </trkpt>
      <trkpt lat="48.01246" lon="-4.54793">
        <ele>5.42</ele>
        <time>2017-05-28T11:58:51Z</time>
      </trkpt>
      <trkpt lat="48.01247" lon="-4.54797">
        <ele>6.39</ele>
        <time>2017-05-28T11:58:54Z</time>
      </trkpt>
      <trkpt lat="48.01247" lon="-4.54807">
        <ele>6.87</ele>
        <time>2017-05-28T11:58:59Z</time>
      </trkpt>
      <trkpt lat="48.01245" lon="-4.54811">
        <ele>7.35</ele>
        <time>2017-05-28T11:59:02Z</time>
      </trkpt>
      <trkpt lat="48.01245" lon="-4.54834">
        <ele>8.31</ele>
        <time>2017-05-28T11:59:15Z</time>
      </trkpt>
      <trkpt lat="48.01244" lon="-4.54854">
        <ele>6.87</ele>
        <time>2017-05-28T11:59:24Z</time>
      </trkpt>
      <trkpt lat="48.01241" lon="-4.54885">
        <ele>6.39</ele>
        <time>2017-05-28T11:59:40Z</time>
      </trkpt>
      <trkpt lat="48.01237" lon="-4.54905">
        <ele>6.39</ele>
        <time>2017-05-28T11:59:51Z</time>
      </trkpt>
      <trkpt lat="48.01235" lon="-4.5491">
        <ele>4.46</ele>
        <time>2017-05-28T12:00:07Z</time>
      </trkpt>
      <trkpt lat="48.01234" lon="-4.5491">
        <ele>0.14</ele>
        <time>2017-05-28T12:00:33Z</time>
      </trkpt>
      <trkpt lat="48.01235" lon="-4.5491">
        <ele>2.54</ele>
        <time>2017-05-28T12:01:01Z</time>
      </trkpt>
      <trkpt lat="48.01235" lon="-4.54911">
        <ele>1.58</ele>
        <time>2017-05-28T12:01:26Z</time>
      </trkpt>
      <trkpt lat="48.01236" lon="-4.5491">
        <ele>1.58</ele>
        <time>2017-05-28T12:01:55Z</time>
      </trkpt>
      <trkpt lat="48.01235" lon="-4.5491">
        <ele>-1.79</ele>
        <time>2017-05-28T12:02:30Z</time>
      </trkpt>
      <trkpt lat="48.01235" lon="-4.54912">
        <ele>-0.82</ele>
        <time>2017-05-28T12:03:05Z</time>
      </trkpt>
      <trkpt lat="48.01236" lon="-4.54911">
        <ele>-0.34</ele>
        <time>2017-05-28T12:03:27Z</time>
      </trkpt>
      <trkpt lat="48.01236" lon="-4.54909">
        <ele>0.14</ele>
        <time>2017-05-28T12:03:59Z</time>
      </trkpt>
      <trkpt lat="48.01235" lon="-4.5491">
        <ele>0.14</ele>
        <time>2017-05-28T12:04:42Z</time>
      </trkpt>
      <trkpt lat="48.01233" lon="-4.54912">
        <ele>0.14</ele>
        <time>2017-05-28T12:04:58Z</time>
      </trkpt>
      <trkpt lat="48.01233" lon="-4.54913">
        <ele>-0.34</ele>
        <time>2017-05-28T12:05:13Z</time>
      </trkpt>
      <trkpt lat="48.01233" lon="-4.54913">
        <ele>0.14</ele>
        <time>2017-05-28T12:05:35Z</time>
      </trkpt>
      <trkpt lat="48.01232" lon="-4.54912">
        <ele>0.14</ele>
        <time>2017-05-28T12:05:54Z</time>
      </trkpt>
      <trkpt lat="48.01232" lon="-4.54914">
        <ele>-0.34</ele>
        <time>2017-05-28T12:06:35Z</time>
      </trkpt>
      <trkpt lat="48.01232" lon="-4.54918">
        <ele>-1.3</ele>
        <time>2017-05-28T12:06:49Z</time>
      </trkpt>
      <trkpt lat="48.01229" lon="-4.54932">
        <ele>0.62</ele>
        <time>2017-05-28T12:06:59Z</time>
      </trkpt>
      <trkpt lat="48.01221" lon="-4.54951">
        <ele>1.58</ele>
        <time>2017-05-28T12:07:11Z</time>
      </trkpt>
      <trkpt lat="48.01218" lon="-4.54957">
        <ele>2.06</ele>
        <time>2017-05-28T12:07:15Z</time>
      </trkpt>
      <trkpt lat="48.01211" lon="-4.54972">
        <ele>2.06</ele>
        <time>2017-05-28T12:07:24Z</time>
      </trkpt>
      <trkpt lat="48.01209" lon="-4.54981">
        <ele>3.5</ele>
        <time>2017-05-28T12:07:30Z</time>
      </trkpt>
      <trkpt lat="48.012" lon="-4.55001">
        <ele>5.42</ele>
        <time>2017-05-28T12:07:44Z</time>
      </trkpt>
      <trkpt lat="48.01198" lon="-4.55005">
        <ele>5.91</ele>
        <time>2017-05-28T12:07:47Z</time>
      </trkpt>
      <trkpt lat="48.01196" lon="-4.55012">
        <ele>6.39</ele>
        <time>2017-05-28T12:07:51Z</time>
      </trkpt>
      <trkpt lat="48.01195" lon="-4.55016">
        <ele>6.39</ele>
        <time>2017-05-28T12:07:53Z</time>
      </trkpt>
      <trkpt lat="48.01192" lon="-4.55024">
        <ele>7.83</ele>
        <time>2017-05-28T12:07:59Z</time>
      </trkpt>
      <trkpt lat="48.01187" lon="-4.55048">
        <ele>9.27</ele>
        <time>2017-05-28T12:08:15Z</time>
      </trkpt>
      <trkpt lat="48.01186" lon="-4.55051">
        <ele>9.27</ele>
        <time>2017-05-28T12:08:17Z</time>
      </trkpt>
      <trkpt lat="48.01186" lon="-4.55066">
        <ele>9.75</ele>
        <time>2017-05-28T12:08:26Z</time>
      </trkpt>
      <trkpt lat="48.01183" lon="-4.55089">
        <ele>10.71</ele>
        <time>2017-05-28T12:08:41Z</time>
      </trkpt>
      <trkpt lat="48.01182" lon="-4.55095">
        <ele>11.19</ele>
        <time>2017-05-28T12:08:45Z</time>
      </trkpt>
      <trkpt lat="48.0118" lon="-4.55111">
        <ele>11.19</ele>
        <time>2017-05-28T12:08:55Z</time>
      </trkpt>
      <trkpt lat="48.01177" lon="-4.55123">
        <ele>11.67</ele>
        <time>2017-05-28T12:09:02Z</time>
      </trkpt>
      <trkpt lat="48.01178" lon="-4.55136">
        <ele>11.67</ele>
        <time>2017-05-28T12:09:09Z</time>
      </trkpt>
      <trkpt lat="48.01175" lon="-4.55159">
        <ele>13.6</ele>
        <time>2017-05-28T12:09:24Z</time>
      </trkpt>
      <trkpt lat="48.01174" lon="-4.55166">
        <ele>14.08</ele>
        <time>2017-05-28T12:09:29Z</time>
      </trkpt>
      <trkpt lat="48.01173" lon="-4.55174">
        <ele>14.56</ele>
        <time>2017-05-28T12:09:34Z</time>
      </trkpt>
      <trkpt lat="48.01166" lon="-4.55178">
        <ele>15.52</ele>
        <time>2017-05-28T12:09:41Z</time>
      </trkpt>
      <trkpt lat="48.01158" lon="-4.55189">
        <ele>14.56</ele>
        <time>2017-05-28T12:09:49Z</time>
      </trkpt>
      <trkpt lat="48.01141" lon="-4.55207">
        <ele>13.6</ele>
        <time>2017-05-28T12:10:05Z</time>
      </trkpt>
      <trkpt lat="48.01138" lon="-4.55208">
        <ele>14.08</ele>
        <time>2017-05-28T12:10:07Z</time>
      </trkpt>
      <trkpt lat="48.01136" lon="-4.55211">
        <ele>14.08</ele>
        <time>2017-05-28T12:10:10Z</time>
      </trkpt>
      <trkpt lat="48.01132" lon="-4.55217">
        <ele>14.56</ele>
        <time>2017-05-28T12:10:14Z</time>
      </trkpt>
      <trkpt lat="48.01125" lon="-4.55227">
        <ele>14.08</ele>
        <time>2017-05-28T12:10:23Z</time>
      </trkpt>
      <trkpt lat="48.01118" lon="-4.55235">
        <ele>13.12</ele>
        <time>2017-05-28T12:10:29Z</time>
      </trkpt>
      <trkpt lat="48.01111" lon="-4.55247">
        <ele>11.19</ele>
        <time>2017-05-28T12:10:38Z</time>
      </trkpt>
      <trkpt lat="48.01097" lon="-4.55264">
        <ele>10.23</ele>
        <time>2017-05-28T12:10:52Z</time>
      </trkpt>
      <trkpt lat="48.01094" lon="-4.55268">
        <ele>10.23</ele>
        <time>2017-05-28T12:10:55Z</time>
      </trkpt>
      <trkpt lat="48.01091" lon="-4.5527">
        <ele>10.71</ele>
        <time>2017-05-28T12:10:57Z</time>
      </trkpt>
      <trkpt lat="48.01078" lon="-4.55294">
        <ele>10.71</ele>
        <time>2017-05-28T12:11:13Z</time>
      </trkpt>
      <trkpt lat="48.0107" lon="-4.55319">
        <ele>9.75</ele>
        <time>2017-05-28T12:11:28Z</time>
      </trkpt>
      <trkpt lat="48.01061" lon="-4.5534">
        <ele>11.19</ele>
        <time>2017-05-28T12:11:41Z</time>
      </trkpt>
      <trkpt lat="48.01061" lon="-4.55343">
        <ele>11.19</ele>
        <time>2017-05-28T12:11:43Z</time>
      </trkpt>
      <trkpt lat="48.01057" lon="-4.55354">
        <ele>11.67</ele>
        <time>2017-05-28T12:11:49Z</time>
      </trkpt>
      <trkpt lat="48.01047" lon="-4.5538">
        <ele>9.27</ele>
        <time>2017-05-28T12:12:04Z</time>
      </trkpt>
      <trkpt lat="48.01043" lon="-4.55391">
        <ele>8.79</ele>
        <time>2017-05-28T12:12:12Z</time>
      </trkpt>
      <trkpt lat="48.01036" lon="-4.55418">
        <ele>6.39</ele>
        <time>2017-05-28T12:12:27Z</time>
      </trkpt>
      <trkpt lat="48.01034" lon="-4.5543">
        <ele>6.39</ele>
        <time>2017-05-28T12:12:36Z</time>
      </trkpt>
      <trkpt lat="48.01032" lon="-4.55441">
        <ele>7.35</ele>
        <time>2017-05-28T12:12:42Z</time>
      </trkpt>
      <trkpt lat="48.01032" lon="-4.55456">
        <ele>8.31</ele>
        <time>2017-05-28T12:12:50Z</time>
      </trkpt>
      <trkpt lat="48.01031" lon="-4.5548">
        <ele>7.83</ele>
        <time>2017-05-28T12:13:01Z</time>
      </trkpt>
      <trkpt lat="48.01033" lon="-4.55488">
        <ele>7.83</ele>
        <time>2017-05-28T12:13:06Z</time>
      </trkpt>
      <trkpt lat="48.01031" lon="-4.55512">
        <ele>7.35</ele>
        <time>2017-05-28T12:13:19Z</time>
      </trkpt>
      <trkpt lat="48.0103" lon="-4.55522">
        <ele>7.83</ele>
        <time>2017-05-28T12:13:24Z</time>
      </trkpt>
      <trkpt lat="48.01028" lon="-4.55532">
        <ele>8.31</ele>
        <time>2017-05-28T12:13:29Z</time>
      </trkpt>
      <trkpt lat="48.01026" lon="-4.55547">
        <ele>6.87</ele>
        <time>2017-05-28T12:13:37Z</time>
      </trkpt>
      <trkpt lat="48.0102" lon="-4.5556">
        <ele>5.91</ele>
        <time>2017-05-28T12:13:45Z</time>
      </trkpt>
      <trkpt lat="48.01012" lon="-4.55572">
        <ele>4.94</ele>
        <time>2017-05-28T12:13:53Z</time>
      </trkpt>
      <trkpt lat="48.0101" lon="-4.55581">
        <ele>3.98</ele>
        <time>2017-05-28T12:13:58Z</time>
      </trkpt>
      <trkpt lat="48.01007" lon="-4.55584">
        <ele>5.91</ele>
        <time>2017-05-28T12:14:14Z</time>
      </trkpt>
      <trkpt lat="48.01007" lon="-4.55585">
        <ele>7.35</ele>
        <time>2017-05-28T12:14:41Z</time>
      </trkpt>
      <trkpt lat="48.01004" lon="-4.55586">
        <ele>6.87</ele>
        <time>2017-05-28T12:14:50Z</time>
      </trkpt>
      <trkpt lat="48.01002" lon="-4.55586">
        <ele>6.39</ele>
        <time>2017-05-28T12:14:52Z</time>
      </trkpt>
      <trkpt lat="48.00989" lon="-4.55605">
        <ele>3.02</ele>
        <time>2017-05-28T12:15:07Z</time>
      </trkpt>
      <trkpt lat="48.00978" lon="-4.55624">
        <ele>-2.27</ele>
        <time>2017-05-28T12:15:23Z</time>
      </trkpt>
      <trkpt lat="48.00974" lon="-4.55628">
        <ele>-0.82</ele>
        <time>2017-05-28T12:15:28Z</time>
      </trkpt>
      <trkpt lat="48.00968" lon="-4.55629">
        <ele>-0.34</ele>
        <time>2017-05-28T12:15:33Z</time>
      </trkpt>
      <trkpt lat="48.00963" lon="-4.55629">
        <ele>1.1</ele>
        <time>2017-05-28T12:15:39Z</time>
      </trkpt>
      <trkpt lat="48.00964" lon="-4.55636">
        <ele>0.62</ele>
        <time>2017-05-28T12:15:45Z</time>
      </trkpt>
      <trkpt lat="48.00967" lon="-4.55645">
        <ele>0.62</ele>
        <time>2017-05-28T12:15:51Z</time>
      </trkpt>
      <trkpt lat="48.00968" lon="-4.55662">
        <ele>2.06</ele>
        <time>2017-05-28T12:16:03Z</time>
      </trkpt>
      <trkpt lat="48.00968" lon="-4.55673">
        <ele>3.02</ele>
        <time>2017-05-28T12:16:09Z</time>
      </trkpt>
      <trkpt lat="48.00967" lon="-4.55675">
        <ele>3.02</ele>
        <time>2017-05-28T12:16:11Z</time>
      </trkpt>
      <trkpt lat="48.00954" lon="-4.55681">
        <ele>4.46</ele>
        <time>2017-05-28T12:16:21Z</time>
      </trkpt>
      <trkpt lat="48.00951" lon="-4.55683">
        <ele>4.94</ele>
        <time>2017-05-28T12:16:23Z</time>
      </trkpt>
      <trkpt lat="48.00936" lon="-4.55683">
        <ele>5.42</ele>
        <time>2017-05-28T12:16:37Z</time>
      </trkpt>
      <trkpt lat="48.00921" lon="-4.55679">
        <ele>5.91</ele>
        <time>2017-05-28T12:16:50Z</time>
      </trkpt>
      <trkpt lat="48.00918" lon="-4.55678">
        <ele>5.91</ele>
        <time>2017-05-28T12:16:53Z</time>
      </trkpt>
      <trkpt lat="48.0091" lon="-4.55673">
        <ele>6.87</ele>
        <time>2017-05-28T12:16:59Z</time>
      </trkpt>
      <trkpt lat="48.00894" lon="-4.55667">
        <ele>7.35</ele>
        <time>2017-05-28T12:17:11Z</time>
      </trkpt>
      <trkpt lat="48.00874" lon="-4.55664">
        <ele>11.19</ele>
        <time>2017-05-28T12:17:27Z</time>
      </trkpt>
      <trkpt lat="48.00873" lon="-4.55664">
        <ele>11.67</ele>
        <time>2017-05-28T12:17:28Z</time>
      </trkpt>
      <trkpt lat="48.00871" lon="-4.55666">
        <ele>12.15</ele>
        <time>2017-05-28T12:17:32Z</time>
      </trkpt>
      <trkpt lat="48.00851" lon="-4.55661">
        <ele>9.75</ele>
        <time>2017-05-28T12:17:48Z</time>
      </trkpt>
      <trkpt lat="48.00841" lon="-4.55661">
        <ele>9.75</ele>
        <time>2017-05-28T12:17:57Z</time>
      </trkpt>
      <trkpt lat="48.00839" lon="-4.55662">
        <ele>9.75</ele>
        <time>2017-05-28T12:17:59Z</time>
      </trkpt>
      <trkpt lat="48.00833" lon="-4.55665">
        <ele>9.27</ele>
        <time>2017-05-28T12:18:03Z</time>
      </trkpt>
      <trkpt lat="48.00819" lon="-4.55678">
        <ele>8.31</ele>
        <time>2017-05-28T12:18:18Z</time>
      </trkpt>
      <trkpt lat="48.00819" lon="-4.55679">
        <ele>8.31</ele>
        <time>2017-05-28T12:18:19Z</time>
      </trkpt>
      <trkpt lat="48.00805" lon="-4.55703">
        <ele>8.31</ele>
        <time>2017-05-28T12:18:35Z</time>
      </trkpt>
      <trkpt lat="48.00795" lon="-4.55718">
        <ele>8.31</ele>
        <time>2017-05-28T12:18:47Z</time>
      </trkpt>
      <trkpt lat="48.00787" lon="-4.55728">
        <ele>8.31</ele>
        <time>2017-05-28T12:18:55Z</time>
      </trkpt>
      <trkpt lat="48.00785" lon="-4.55732">
        <ele>7.83</ele>
        <time>2017-05-28T12:18:58Z</time>
      </trkpt>
      <trkpt lat="48.00767" lon="-4.55749">
        <ele>7.83</ele>
        <time>2017-05-28T12:19:13Z</time>
      </trkpt>
      <trkpt lat="48.00753" lon="-4.55756">
        <ele>6.39</ele>
        <time>2017-05-28T12:19:26Z</time>
      </trkpt>
      <trkpt lat="48.0075" lon="-4.55758">
        <ele>6.39</ele>
        <time>2017-05-28T12:19:29Z</time>
      </trkpt>
      <trkpt lat="48.00729" lon="-4.5576">
        <ele>5.42</ele>
        <time>2017-05-28T12:19:44Z</time>
      </trkpt>
      <trkpt lat="48.00709" lon="-4.5576">
        <ele>3.5</ele>
        <time>2017-05-28T12:20:00Z</time>
      </trkpt>
      <trkpt lat="48.00693" lon="-4.55756">
        <ele>2.06</ele>
        <time>2017-05-28T12:20:13Z</time>
      </trkpt>
      <trkpt lat="48.00672" lon="-4.55756">
        <ele>3.02</ele>
        <time>2017-05-28T12:20:30Z</time>
      </trkpt>
      <trkpt lat="48.00656" lon="-4.55754">
        <ele>2.06</ele>
        <time>2017-05-28T12:20:44Z</time>
      </trkpt>
      <trkpt lat="48.00638" lon="-4.55754">
        <ele>4.46</ele>
        <time>2017-05-28T12:20:59Z</time>
      </trkpt>
      <trkpt lat="48.00624" lon="-4.5575">
        <ele>5.42</ele>
        <time>2017-05-28T12:21:13Z</time>
      </trkpt>
      <trkpt lat="48.00624" lon="-4.55748">
        <ele>5.91</ele>
        <time>2017-05-28T12:21:14Z</time>
      </trkpt>
      <trkpt lat="48.00624" lon="-4.55722">
        <ele>3.5</ele>
        <time>2017-05-28T12:21:30Z</time>
      </trkpt>
      <trkpt lat="48.00624" lon="-4.55707">
        <ele>2.06</ele>
        <time>2017-05-28T12:21:39Z</time>
      </trkpt>
      <trkpt lat="48.00624" lon="-4.55678">
        <ele>0.14</ele>
        <time>2017-05-28T12:21:55Z</time>
      </trkpt>
      <trkpt lat="48.00623" lon="-4.55676">
        <ele>0.14</ele>
        <time>2017-05-28T12:21:56Z</time>
      </trkpt>
      <trkpt lat="48.00619" lon="-4.55659">
        <ele>-0.82</ele>
        <time>2017-05-28T12:22:10Z</time>
      </trkpt>
      <trkpt lat="48.00599" lon="-4.55653">
        <ele>-3.23</ele>
        <time>2017-05-28T12:22:27Z</time>
      </trkpt>
      <trkpt lat="48.00584" lon="-4.55652">
        <ele>-1.3</ele>
        <time>2017-05-28T12:22:40Z</time>
      </trkpt>
      <trkpt lat="48.00572" lon="-4.55651">
        <ele>-0.82</ele>
        <time>2017-05-28T12:22:50Z</time>
      </trkpt>
      <trkpt lat="48.00565" lon="-4.55653">
        <ele>-1.79</ele>
        <time>2017-05-28T12:22:57Z</time>
      </trkpt>
      <trkpt lat="48.00562" lon="-4.55655">
        <ele>-1.79</ele>
        <time>2017-05-28T12:23:00Z</time>
      </trkpt>
      <trkpt lat="48.00544" lon="-4.55652">
        <ele>-0.34</ele>
        <time>2017-05-28T12:23:15Z</time>
      </trkpt>
      <trkpt lat="48.00539" lon="-4.55653">
        <ele>0.62</ele>
        <time>2017-05-28T12:23:20Z</time>
      </trkpt>
      <trkpt lat="48.00531" lon="-4.55663">
        <ele>1.58</ele>
        <time>2017-05-28T12:23:29Z</time>
      </trkpt>
      <trkpt lat="48.0053" lon="-4.55677">
        <ele>2.06</ele>
        <time>2017-05-28T12:23:37Z</time>
      </trkpt>
      <trkpt lat="48.00518" lon="-4.55684">
        <ele>5.42</ele>
        <time>2017-05-28T12:23:49Z</time>
      </trkpt>
      <trkpt lat="48.00517" lon="-4.55679">
        <ele>5.42</ele>
        <time>2017-05-28T12:23:52Z</time>
      </trkpt>
      <trkpt lat="48.00517" lon="-4.55674">
        <ele>5.91</ele>
        <time>2017-05-28T12:24:14Z</time>
      </trkpt>
      <trkpt lat="48.00517" lon="-4.55675">
        <ele>6.39</ele>
        <time>2017-05-28T12:24:40Z</time>
      </trkpt>
      <trkpt lat="48.00511" lon="-4.55686">
        <ele>5.91</ele>
        <time>2017-05-28T12:24:46Z</time>
      </trkpt>
      <trkpt lat="48.005" lon="-4.55699">
        <ele>5.91</ele>
        <time>2017-05-28T12:24:57Z</time>
      </trkpt>
      <trkpt lat="48.00496" lon="-4.5572">
        <ele>7.83</ele>
        <time>2017-05-28T12:25:06Z</time>
      </trkpt>
      <trkpt lat="48.00489" lon="-4.55736">
        <ele>8.31</ele>
        <time>2017-05-28T12:25:14Z</time>
      </trkpt>
      <trkpt lat="48.00475" lon="-4.55759">
        <ele>8.79</ele>
        <time>2017-05-28T12:25:30Z</time>
      </trkpt>
      <trkpt lat="48.00461" lon="-4.55767">
        <ele>6.39</ele>
        <time>2017-05-28T12:25:39Z</time>
      </trkpt>
      <trkpt lat="48.00454" lon="-4.55775">
        <ele>6.87</ele>
        <time>2017-05-28T12:25:47Z</time>
      </trkpt>
      <trkpt lat="48.00446" lon="-4.55777">
        <ele>6.87</ele>
        <time>2017-05-28T12:25:52Z</time>
      </trkpt>
      <trkpt lat="48.00421" lon="-4.55784">
        <ele>4.46</ele>
        <time>2017-05-28T12:26:06Z</time>
      </trkpt>
      <trkpt lat="48.00417" lon="-4.5579">
        <ele>3.98</ele>
        <time>2017-05-28T12:26:12Z</time>
      </trkpt>
      <trkpt lat="48.00414" lon="-4.55794">
        <ele>4.46</ele>
        <time>2017-05-28T12:26:15Z</time>
      </trkpt>
      <trkpt lat="48.00412" lon="-4.55808">
        <ele>5.42</ele>
        <time>2017-05-28T12:26:21Z</time>
      </trkpt>
      <trkpt lat="48.00402" lon="-4.55841">
        <ele>4.46</ele>
        <time>2017-05-28T12:26:37Z</time>
      </trkpt>
      <trkpt lat="48.00396" lon="-4.55865">
        <ele>5.42</ele>
        <time>2017-05-28T12:26:50Z</time>
      </trkpt>
      <trkpt lat="48.00384" lon="-4.55882">
        <ele>3.98</ele>
        <time>2017-05-28T12:27:02Z</time>
      </trkpt>
      <trkpt lat="48.00373" lon="-4.55912">
        <ele>1.58</ele>
        <time>2017-05-28T12:27:17Z</time>
      </trkpt>
      <trkpt lat="48.00363" lon="-4.55933">
        <ele>-5.63</ele>
        <time>2017-05-28T12:27:29Z</time>
      </trkpt>
      <trkpt lat="48.00362" lon="-4.55938">
        <ele>-6.11</ele>
        <time>2017-05-28T12:27:31Z</time>
      </trkpt>
      <trkpt lat="48.00356" lon="-4.55942">
        <ele>-8.03</ele>
        <time>2017-05-28T12:27:35Z</time>
      </trkpt>
      <trkpt lat="48.00344" lon="-4.55957">
        <ele>-5.63</ele>
        <time>2017-05-28T12:27:48Z</time>
      </trkpt>
      <trkpt lat="48.00343" lon="-4.55957">
        <ele>-5.15</ele>
        <time>2017-05-28T12:27:49Z</time>
      </trkpt>
      <trkpt lat="48.00328" lon="-4.55969">
        <ele>-5.15</ele>
        <time>2017-05-28T12:28:00Z</time>
      </trkpt>
      <trkpt lat="48.00325" lon="-4.55971">
        <ele>-5.15</ele>
        <time>2017-05-28T12:28:02Z</time>
      </trkpt>
      <trkpt lat="48.00313" lon="-4.55981">
        <ele>-4.67</ele>
        <time>2017-05-28T12:28:12Z</time>
      </trkpt>
      <trkpt lat="48.00308" lon="-4.55987">
        <ele>-4.67</ele>
        <time>2017-05-28T12:28:17Z</time>
      </trkpt>
      <trkpt lat="48.00299" lon="-4.55991">
        <ele>-5.15</ele>
        <time>2017-05-28T12:28:23Z</time>
      </trkpt>
      <trkpt lat="48.0029" lon="-4.55994">
        <ele>-5.63</ele>
        <time>2017-05-28T12:28:28Z</time>
      </trkpt>
      <trkpt lat="48.00271" lon="-4.56004">
        <ele>-8.03</ele>
        <time>2017-05-28T12:28:40Z</time>
      </trkpt>
      <trkpt lat="48.00263" lon="-4.56007">
        <ele>-8.51</ele>
        <time>2017-05-28T12:28:47Z</time>
      </trkpt>
      <trkpt lat="48.0026" lon="-4.56017">
        <ele>-8.51</ele>
        <time>2017-05-28T12:28:54Z</time>
      </trkpt>
      <trkpt lat="48.00261" lon="-4.56021">
        <ele>-9</ele>
        <time>2017-05-28T12:28:56Z</time>
      </trkpt>
      <trkpt lat="48.00261" lon="-4.5603">
        <ele>-8.51</ele>
        <time>2017-05-28T12:29:00Z</time>
      </trkpt>
      <trkpt lat="48.00261" lon="-4.56053">
        <ele>-6.59</ele>
        <time>2017-05-28T12:29:07Z</time>
      </trkpt>
      <trkpt lat="48.0026" lon="-4.56063">
        <ele>-4.67</ele>
        <time>2017-05-28T12:29:11Z</time>
      </trkpt>
      <trkpt lat="48.0026" lon="-4.56071">
        <ele>-4.19</ele>
        <time>2017-05-28T12:29:14Z</time>
      </trkpt>
      <trkpt lat="48.00259" lon="-4.56076">
        <ele>-3.23</ele>
        <time>2017-05-28T12:29:17Z</time>
      </trkpt>
      <trkpt lat="48.0026" lon="-4.56096">
        <ele>-1.3</ele>
        <time>2017-05-28T12:29:26Z</time>
      </trkpt>
      <trkpt lat="48.00256" lon="-4.56129">
        <ele>2.06</ele>
        <time>2017-05-28T12:29:41Z</time>
      </trkpt>
      <trkpt lat="48.00255" lon="-4.56134">
        <ele>2.54</ele>
        <time>2017-05-28T12:29:44Z</time>
      </trkpt>
      <trkpt lat="48.00256" lon="-4.56157">
        <ele>3.5</ele>
        <time>2017-05-28T12:29:54Z</time>
      </trkpt>
      <trkpt lat="48.00256" lon="-4.56163">
        <ele>3.5</ele>
        <time>2017-05-28T12:29:57Z</time>
      </trkpt>
      <trkpt lat="48.00252" lon="-4.5618">
        <ele>4.94</ele>
        <time>2017-05-28T12:30:06Z</time>
      </trkpt>
      <trkpt lat="48.00246" lon="-4.56197">
        <ele>5.42</ele>
        <time>2017-05-28T12:30:16Z</time>
      </trkpt>
      <trkpt lat="48.00244" lon="-4.56213">
        <ele>5.42</ele>
        <time>2017-05-28T12:30:24Z</time>
      </trkpt>
      <trkpt lat="48.00241" lon="-4.5622">
        <ele>4.94</ele>
        <time>2017-05-28T12:30:28Z</time>
      </trkpt>
      <trkpt lat="48.0023" lon="-4.56225">
        <ele>3.5</ele>
        <time>2017-05-28T12:30:37Z</time>
      </trkpt>
      <trkpt lat="48.00222" lon="-4.56239">
        <ele>3.02</ele>
        <time>2017-05-28T12:30:45Z</time>
      </trkpt>
      <trkpt lat="48.00206" lon="-4.56257">
        <ele>0.14</ele>
        <time>2017-05-28T12:30:59Z</time>
      </trkpt>
      <trkpt lat="48.00192" lon="-4.56272">
        <ele>-2.27</ele>
        <time>2017-05-28T12:31:12Z</time>
      </trkpt>
      <trkpt lat="48.00181" lon="-4.56294">
        <ele>-1.79</ele>
        <time>2017-05-28T12:31:27Z</time>
      </trkpt>
      <trkpt lat="48.0018" lon="-4.56296">
        <ele>-1.3</ele>
        <time>2017-05-28T12:31:28Z</time>
      </trkpt>
      <trkpt lat="48.00166" lon="-4.56318">
        <ele>0.14</ele>
        <time>2017-05-28T12:31:43Z</time>
      </trkpt>
      <trkpt lat="48.00163" lon="-4.56324">
        <ele>0.62</ele>
        <time>2017-05-28T12:31:47Z</time>
      </trkpt>
      <trkpt lat="48.00152" lon="-4.56336">
        <ele>1.1</ele>
        <time>2017-05-28T12:31:58Z</time>
      </trkpt>
      <trkpt lat="48.00148" lon="-4.56343">
        <ele>1.1</ele>
        <time>2017-05-28T12:32:02Z</time>
      </trkpt>
      <trkpt lat="48.00143" lon="-4.56348">
        <ele>1.1</ele>
        <time>2017-05-28T12:32:06Z</time>
      </trkpt>
      <trkpt lat="48.0013" lon="-4.56366">
        <ele>-1.3</ele>
        <time>2017-05-28T12:32:20Z</time>
      </trkpt>
      <trkpt lat="48.00115" lon="-4.56381">
        <ele>-2.27</ele>
        <time>2017-05-28T12:32:34Z</time>
      </trkpt>
      <trkpt lat="48.00113" lon="-4.56384">
        <ele>-2.75</ele>
        <time>2017-05-28T12:32:36Z</time>
      </trkpt>
      <trkpt lat="48.00108" lon="-4.56389">
        <ele>-2.75</ele>
        <time>2017-05-28T12:32:40Z</time>
      </trkpt>
      <trkpt lat="48.00105" lon="-4.56397">
        <ele>-0.82</ele>
        <time>2017-05-28T12:32:45Z</time>
      </trkpt>
      <trkpt lat="48.00093" lon="-4.56417">
        <ele>2.06</ele>
        <time>2017-05-28T12:32:58Z</time>
      </trkpt>
      <trkpt lat="48.00076" lon="-4.56437">
        <ele>0.62</ele>
        <time>2017-05-28T12:33:13Z</time>
      </trkpt>
      <trkpt lat="48.00064" lon="-4.56454">
        <ele>-0.34</ele>
        <time>2017-05-28T12:33:27Z</time>
      </trkpt>
      <trkpt lat="48.00045" lon="-4.56462">
        <ele>-0.34</ele>
        <time>2017-05-28T12:33:39Z</time>
      </trkpt>
      <trkpt lat="48.00037" lon="-4.56474">
        <ele>1.1</ele>
        <time>2017-05-28T12:33:49Z</time>
      </trkpt>
      <trkpt lat="48.00033" lon="-4.56481">
        <ele>2.54</ele>
        <time>2017-05-28T12:33:54Z</time>
      </trkpt>
      <trkpt lat="48.0003" lon="-4.56491">
        <ele>3.02</ele>
        <time>2017-05-28T12:34:00Z</time>
      </trkpt>
      <trkpt lat="48.00028" lon="-4.56497">
        <ele>3.5</ele>
        <time>2017-05-28T12:34:04Z</time>
      </trkpt>
      <trkpt lat="48.00023" lon="-4.5651">
        <ele>5.42</ele>
        <time>2017-05-28T12:34:13Z</time>
      </trkpt>
      <trkpt lat="48.00018" lon="-4.56521">
        <ele>5.91</ele>
        <time>2017-05-28T12:34:21Z</time>
      </trkpt>
      <trkpt lat="48.00013" lon="-4.56526">
        <ele>6.39</ele>
        <time>2017-05-28T12:34:25Z</time>
      </trkpt>
      <trkpt lat="48.00006" lon="-4.56541">
        <ele>5.91</ele>
        <time>2017-05-28T12:34:33Z</time>
      </trkpt>
      <trkpt lat="48.00002" lon="-4.56564">
        <ele>6.39</ele>
        <time>2017-05-28T12:34:45Z</time>
      </trkpt>
      <trkpt lat="48.00001" lon="-4.56574">
        <ele>6.39</ele>
        <time>2017-05-28T12:34:50Z</time>
      </trkpt>
      <trkpt lat="47.99999" lon="-4.56577">
        <ele>6.39</ele>
        <time>2017-05-28T12:34:52Z</time>
      </trkpt>
      <trkpt lat="47.99999" lon="-4.56586">
        <ele>6.39</ele>
        <time>2017-05-28T12:34:57Z</time>
      </trkpt>
      <trkpt lat="47.99998" lon="-4.56591">
        <ele>6.87</ele>
        <time>2017-05-28T12:35:00Z</time>
      </trkpt>
      <trkpt lat="47.99996" lon="-4.56592">
        <ele>6.87</ele>
        <time>2017-05-28T12:35:03Z</time>
      </trkpt>
      <trkpt lat="48.00002" lon="-4.56617">
        <ele>6.39</ele>
        <time>2017-05-28T12:35:16Z</time>
      </trkpt>
      <trkpt lat="48.00003" lon="-4.56625">
        <ele>7.35</ele>
        <time>2017-05-28T12:35:21Z</time>
      </trkpt>
      <trkpt lat="48.00004" lon="-4.56632">
        <ele>7.35</ele>
        <time>2017-05-28T12:35:25Z</time>
      </trkpt>
      <trkpt lat="48.00008" lon="-4.56648">
        <ele>6.87</ele>
        <time>2017-05-28T12:35:33Z</time>
      </trkpt>
      <trkpt lat="48.00009" lon="-4.56657">
        <ele>6.87</ele>
        <time>2017-05-28T12:35:38Z</time>
      </trkpt>
      <trkpt lat="48.00011" lon="-4.56666">
        <ele>6.39</ele>
        <time>2017-05-28T12:35:43Z</time>
      </trkpt>
      <trkpt lat="48.00015" lon="-4.56679">
        <ele>6.87</ele>
        <time>2017-05-28T12:35:49Z</time>
      </trkpt>
      <trkpt lat="48.00027" lon="-4.56699">
        <ele>9.27</ele>
        <time>2017-05-28T12:36:03Z</time>
      </trkpt>
      <trkpt lat="48.00034" lon="-4.56724">
        <ele>6.87</ele>
        <time>2017-05-28T12:36:15Z</time>
      </trkpt>
      <trkpt lat="48.00036" lon="-4.5673">
        <ele>6.39</ele>
        <time>2017-05-28T12:36:19Z</time>
      </trkpt>
      <trkpt lat="48.00042" lon="-4.56756">
        <ele>6.39</ele>
        <time>2017-05-28T12:36:31Z</time>
      </trkpt>
      <trkpt lat="48.00046" lon="-4.56785">
        <ele>7.35</ele>
        <time>2017-05-28T12:36:46Z</time>
      </trkpt>
      <trkpt lat="48.00042" lon="-4.56807">
        <ele>7.35</ele>
        <time>2017-05-28T12:36:57Z</time>
      </trkpt>
      <trkpt lat="48.00041" lon="-4.5681">
        <ele>6.39</ele>
        <time>2017-05-28T12:37:00Z</time>
      </trkpt>
      <trkpt lat="48.0004" lon="-4.56824">
        <ele>6.87</ele>
        <time>2017-05-28T12:37:07Z</time>
      </trkpt>
      <trkpt lat="48.0004" lon="-4.56845">
        <ele>6.39</ele>
        <time>2017-05-28T12:37:17Z</time>
      </trkpt>
      <trkpt lat="48.0004" lon="-4.56859">
        <ele>6.39</ele>
        <time>2017-05-28T12:37:23Z</time>
      </trkpt>
      <trkpt lat="48.0005" lon="-4.56884">
        <ele>7.83</ele>
        <time>2017-05-28T12:37:39Z</time>
      </trkpt>
      <trkpt lat="48.00054" lon="-4.56889">
        <ele>9.27</ele>
        <time>2017-05-28T12:37:44Z</time>
      </trkpt>
      <trkpt lat="48.00055" lon="-4.56892">
        <ele>9.75</ele>
        <time>2017-05-28T12:37:46Z</time>
      </trkpt>
      <trkpt lat="48.00058" lon="-4.56896">
        <ele>9.75</ele>
        <time>2017-05-28T12:37:49Z</time>
      </trkpt>
      <trkpt lat="48.00073" lon="-4.56914">
        <ele>12.63</ele>
        <time>2017-05-28T12:38:04Z</time>
      </trkpt>
      <trkpt lat="48.00088" lon="-4.56932">
        <ele>13.12</ele>
        <time>2017-05-28T12:38:18Z</time>
      </trkpt>
      <trkpt lat="48.00102" lon="-4.56949">
        <ele>11.67</ele>
        <time>2017-05-28T12:38:30Z</time>
      </trkpt>
      <trkpt lat="48.00108" lon="-4.56966">
        <ele>10.23</ele>
        <time>2017-05-28T12:38:38Z</time>
      </trkpt>
      <trkpt lat="48.00126" lon="-4.56984">
        <ele>8.31</ele>
        <time>2017-05-28T12:38:52Z</time>
      </trkpt>
      <trkpt lat="48.00133" lon="-4.56991">
        <ele>9.75</ele>
        <time>2017-05-28T12:38:59Z</time>
      </trkpt>
      <trkpt lat="48.00147" lon="-4.57007">
        <ele>11.67</ele>
        <time>2017-05-28T12:39:13Z</time>
      </trkpt>
      <trkpt lat="48.00168" lon="-4.57021">
        <ele>11.67</ele>
        <time>2017-05-28T12:39:29Z</time>
      </trkpt>
      <trkpt lat="48.00189" lon="-4.57042">
        <ele>9.75</ele>
        <time>2017-05-28T12:39:47Z</time>
      </trkpt>
      <trkpt lat="48.00194" lon="-4.57047">
        <ele>9.75</ele>
        <time>2017-05-28T12:39:53Z</time>
      </trkpt>
      <trkpt lat="48.00198" lon="-4.57049">
        <ele>10.71</ele>
        <time>2017-05-28T12:39:58Z</time>
      </trkpt>
      <trkpt lat="48.00202" lon="-4.57049">
        <ele>11.19</ele>
        <time>2017-05-28T12:40:01Z</time>
      </trkpt>
      <trkpt lat="48.00218" lon="-4.57066">
        <ele>13.6</ele>
        <time>2017-05-28T12:40:16Z</time>
      </trkpt>
      <trkpt lat="48.00234" lon="-4.57091">
        <ele>13.12</ele>
        <time>2017-05-28T12:40:31Z</time>
      </trkpt>
      <trkpt lat="48.00247" lon="-4.57106">
        <ele>12.63</ele>
        <time>2017-05-28T12:40:45Z</time>
      </trkpt>
      <trkpt lat="48.00257" lon="-4.57123">
        <ele>12.63</ele>
        <time>2017-05-28T12:40:57Z</time>
      </trkpt>
      <trkpt lat="48.00258" lon="-4.57129">
        <ele>12.15</ele>
        <time>2017-05-28T12:41:00Z</time>
      </trkpt>
      <trkpt lat="48.00272" lon="-4.57158">
        <ele>9.75</ele>
        <time>2017-05-28T12:41:15Z</time>
      </trkpt>
      <trkpt lat="48.0028" lon="-4.57167">
        <ele>8.31</ele>
        <time>2017-05-28T12:41:20Z</time>
      </trkpt>
      <trkpt lat="48.00283" lon="-4.57167">
        <ele>7.35</ele>
        <time>2017-05-28T12:41:23Z</time>
      </trkpt>
      <trkpt lat="48.00285" lon="-4.5717">
        <ele>6.39</ele>
        <time>2017-05-28T12:41:26Z</time>
      </trkpt>
      <trkpt lat="48.00294" lon="-4.57173">
        <ele>4.94</ele>
        <time>2017-05-28T12:41:37Z</time>
      </trkpt>
      <trkpt lat="48.0031" lon="-4.57184">
        <ele>4.46</ele>
        <time>2017-05-28T12:41:51Z</time>
      </trkpt>
      <trkpt lat="48.00318" lon="-4.57193">
        <ele>4.46</ele>
        <time>2017-05-28T12:42:02Z</time>
      </trkpt>
      <trkpt lat="48.00322" lon="-4.57199">
        <ele>4.46</ele>
        <time>2017-05-28T12:42:09Z</time>
      </trkpt>
      <trkpt lat="48.00328" lon="-4.57208">
        <ele>4.94</ele>
        <time>2017-05-28T12:42:14Z</time>
      </trkpt>
      <trkpt lat="48.00331" lon="-4.57214">
        <ele>5.42</ele>
        <time>2017-05-28T12:42:19Z</time>
      </trkpt>
      <trkpt lat="48.00342" lon="-4.57236">
        <ele>5.91</ele>
        <time>2017-05-28T12:42:32Z</time>
      </trkpt>
      <trkpt lat="48.00346" lon="-4.57243">
        <ele>6.39</ele>
        <time>2017-05-28T12:42:45Z</time>
      </trkpt>
      <trkpt lat="48.00348" lon="-4.57243">
        <ele>6.39</ele>
        <time>2017-05-28T12:42:52Z</time>
      </trkpt>
      <trkpt lat="48.00356" lon="-4.57249">
        <ele>6.87</ele>
        <time>2017-05-28T12:43:00Z</time>
      </trkpt>
      <trkpt lat="48.00357" lon="-4.5726">
        <ele>7.35</ele>
        <time>2017-05-28T12:43:06Z</time>
      </trkpt>
      <trkpt lat="48.00359" lon="-4.57266">
        <ele>7.35</ele>
        <time>2017-05-28T12:43:09Z</time>
      </trkpt>
      <trkpt lat="48.00358" lon="-4.57276">
        <ele>7.35</ele>
        <time>2017-05-28T12:43:15Z</time>
      </trkpt>
      <trkpt lat="48.00352" lon="-4.57281">
        <ele>7.35</ele>
        <time>2017-05-28T12:43:28Z</time>
      </trkpt>
      <trkpt lat="48.00352" lon="-4.57282">
        <ele>7.35</ele>
        <time>2017-05-28T12:43:34Z</time>
      </trkpt>
      <trkpt lat="48.00351" lon="-4.57298">
        <ele>7.35</ele>
        <time>2017-05-28T12:43:46Z</time>
      </trkpt>
      <trkpt lat="48.0035" lon="-4.57304">
        <ele>6.87</ele>
        <time>2017-05-28T12:44:03Z</time>
      </trkpt>
      <trkpt lat="48.0035" lon="-4.57303">
        <ele>6.87</ele>
        <time>2017-05-28T12:44:23Z</time>
      </trkpt>
      <trkpt lat="48.0035" lon="-4.57303">
        <ele>7.35</ele>
        <time>2017-05-28T12:44:57Z</time>
      </trkpt>
      <trkpt lat="48.0035" lon="-4.57303">
        <ele>8.31</ele>
        <time>2017-05-28T12:45:24Z</time>
      </trkpt>
      <trkpt lat="48.0035" lon="-4.57303">
        <ele>8.79</ele>
        <time>2017-05-28T12:45:47Z</time>
      </trkpt>
      <trkpt lat="48.0035" lon="-4.57302">
        <ele>9.27</ele>
        <time>2017-05-28T12:46:13Z</time>
      </trkpt>
      <trkpt lat="48.0035" lon="-4.57302">
        <ele>9.75</ele>
        <time>2017-05-28T12:46:48Z</time>
      </trkpt>
      <trkpt lat="48.0035" lon="-4.57302">
        <ele>9.75</ele>
        <time>2017-05-28T12:47:17Z</time>
      </trkpt>
      <trkpt lat="48.0035" lon="-4.57303">
        <ele>9.75</ele>
        <time>2017-05-28T12:47:26Z</time>
      </trkpt>
      <trkpt lat="48.00349" lon="-4.57304">
        <ele>10.23</ele>
        <time>2017-05-28T12:47:37Z</time>
      </trkpt>
      <trkpt lat="48.00349" lon="-4.57304">
        <ele>10.71</ele>
        <time>2017-05-28T12:47:58Z</time>
      </trkpt>
      <trkpt lat="48.00347" lon="-4.57309">
        <ele>10.71</ele>
        <time>2017-05-28T12:48:02Z</time>
      </trkpt>
      <trkpt lat="48.0034" lon="-4.57329">
        <ele>11.19</ele>
        <time>2017-05-28T12:48:12Z</time>
      </trkpt>
      <trkpt lat="48.00338" lon="-4.57335">
        <ele>11.67</ele>
        <time>2017-05-28T12:48:16Z</time>
      </trkpt>
      <trkpt lat="48.00338" lon="-4.5734">
        <ele>11.19</ele>
        <time>2017-05-28T12:48:29Z</time>
      </trkpt>
      <trkpt lat="48.00339" lon="-4.57346">
        <ele>11.19</ele>
        <time>2017-05-28T12:48:32Z</time>
      </trkpt>
      <trkpt lat="48.00347" lon="-4.57363">
        <ele>10.71</ele>
        <time>2017-05-28T12:48:41Z</time>
      </trkpt>
      <trkpt lat="48.00352" lon="-4.57395">
        <ele>10.23</ele>
        <time>2017-05-28T12:48:57Z</time>
      </trkpt>
      <trkpt lat="48.00357" lon="-4.5741">
        <ele>9.75</ele>
        <time>2017-05-28T12:49:05Z</time>
      </trkpt>
      <trkpt lat="48.00362" lon="-4.57437">
        <ele>11.19</ele>
        <time>2017-05-28T12:49:19Z</time>
      </trkpt>
      <trkpt lat="48.00365" lon="-4.57446">
        <ele>11.67</ele>
        <time>2017-05-28T12:49:24Z</time>
      </trkpt>
      <trkpt lat="48.00371" lon="-4.57471">
        <ele>13.12</ele>
        <time>2017-05-28T12:49:39Z</time>
      </trkpt>
      <trkpt lat="48.00374" lon="-4.5748">
        <ele>12.15</ele>
        <time>2017-05-28T12:49:45Z</time>
      </trkpt>
      <trkpt lat="48.00383" lon="-4.57493">
        <ele>11.19</ele>
        <time>2017-05-28T12:49:55Z</time>
      </trkpt>
      <trkpt lat="48.00393" lon="-4.57504">
        <ele>12.15</ele>
        <time>2017-05-28T12:50:03Z</time>
      </trkpt>
      <trkpt lat="48.00396" lon="-4.57519">
        <ele>12.63</ele>
        <time>2017-05-28T12:50:12Z</time>
      </trkpt>
      <trkpt lat="48.00403" lon="-4.57532">
        <ele>12.63</ele>
        <time>2017-05-28T12:50:25Z</time>
      </trkpt>
      <trkpt lat="48.00412" lon="-4.57553">
        <ele>14.56</ele>
        <time>2017-05-28T12:50:38Z</time>
      </trkpt>
      <trkpt lat="48.00414" lon="-4.57562">
        <ele>14.08</ele>
        <time>2017-05-28T12:50:43Z</time>
      </trkpt>
      <trkpt lat="48.00429" lon="-4.5759">
        <ele>10.71</ele>
        <time>2017-05-28T12:50:59Z</time>
      </trkpt>
      <trkpt lat="48.00441" lon="-4.57609">
        <ele>11.19</ele>
        <time>2017-05-28T12:51:14Z</time>
      </trkpt>
      <trkpt lat="48.00449" lon="-4.57619">
        <ele>11.19</ele>
        <time>2017-05-28T12:51:22Z</time>
      </trkpt>
      <trkpt lat="48.00453" lon="-4.57624">
        <ele>11.19</ele>
        <time>2017-05-28T12:51:26Z</time>
      </trkpt>
      <trkpt lat="48.00472" lon="-4.57639">
        <ele>11.19</ele>
        <time>2017-05-28T12:51:43Z</time>
      </trkpt>
      <trkpt lat="48.00477" lon="-4.57642">
        <ele>11.19</ele>
        <time>2017-05-28T12:51:47Z</time>
      </trkpt>
      <trkpt lat="48.00485" lon="-4.57657">
        <ele>11.19</ele>
        <time>2017-05-28T12:51:57Z</time>
      </trkpt>
      <trkpt lat="48.00488" lon="-4.57669">
        <ele>11.19</ele>
        <time>2017-05-28T12:52:03Z</time>
      </trkpt>
      <trkpt lat="48.0049" lon="-4.5768">
        <ele>10.71</ele>
        <time>2017-05-28T12:52:09Z</time>
      </trkpt>
      <trkpt lat="48.00494" lon="-4.57702">
        <ele>9.75</ele>
        <time>2017-05-28T12:52:19Z</time>
      </trkpt>
      <trkpt lat="48.00497" lon="-4.5773">
        <ele>11.67</ele>
        <time>2017-05-28T12:52:34Z</time>
      </trkpt>
      <trkpt lat="48.00497" lon="-4.57732">
        <ele>11.67</ele>
        <time>2017-05-28T12:52:35Z</time>
      </trkpt>
      <trkpt lat="48.00494" lon="-4.57744">
        <ele>12.63</ele>
        <time>2017-05-28T12:52:41Z</time>
      </trkpt>
      <trkpt lat="48.00488" lon="-4.57762">
        <ele>12.63</ele>
        <time>2017-05-28T12:52:49Z</time>
      </trkpt>
      <trkpt lat="48.00485" lon="-4.57779">
        <ele>13.6</ele>
        <time>2017-05-28T12:52:59Z</time>
      </trkpt>
      <trkpt lat="48.00477" lon="-4.57797">
        <ele>13.12</ele>
        <time>2017-05-28T12:53:07Z</time>
      </trkpt>
      <trkpt lat="48.00472" lon="-4.5782">
        <ele>11.67</ele>
        <time>2017-05-28T12:53:19Z</time>
      </trkpt>
      <trkpt lat="48.0047" lon="-4.57826">
        <ele>11.19</ele>
        <time>2017-05-28T12:53:22Z</time>
      </trkpt>
      <trkpt lat="48.0046" lon="-4.57846">
        <ele>9.75</ele>
        <time>2017-05-28T12:53:35Z</time>
      </trkpt>
      <trkpt lat="48.00457" lon="-4.57851">
        <ele>8.79</ele>
        <time>2017-05-28T12:53:38Z</time>
      </trkpt>
      <trkpt lat="48.00451" lon="-4.57863">
        <ele>8.31</ele>
        <time>2017-05-28T12:53:44Z</time>
      </trkpt>
      <trkpt lat="48.00446" lon="-4.57891">
        <ele>8.79</ele>
        <time>2017-05-28T12:54:00Z</time>
      </trkpt>
      <trkpt lat="48.00443" lon="-4.57896">
        <ele>9.75</ele>
        <time>2017-05-28T12:54:03Z</time>
      </trkpt>
      <trkpt lat="48.00435" lon="-4.57922">
        <ele>12.63</ele>
        <time>2017-05-28T12:54:16Z</time>
      </trkpt>
      <trkpt lat="48.0043" lon="-4.57934">
        <ele>13.12</ele>
        <time>2017-05-28T12:54:22Z</time>
      </trkpt>
      <trkpt lat="48.00423" lon="-4.57949">
        <ele>13.6</ele>
        <time>2017-05-28T12:54:32Z</time>
      </trkpt>
      <trkpt lat="48.00414" lon="-4.57965">
        <ele>13.12</ele>
        <time>2017-05-28T12:54:41Z</time>
      </trkpt>
      <trkpt lat="48.00411" lon="-4.57975">
        <ele>12.15</ele>
        <time>2017-05-28T12:54:46Z</time>
      </trkpt>
      <trkpt lat="48.00407" lon="-4.57997">
        <ele>10.71</ele>
        <time>2017-05-28T12:54:55Z</time>
      </trkpt>
      <trkpt lat="48.00407" lon="-4.58005">
        <ele>10.71</ele>
        <time>2017-05-28T12:55:01Z</time>
      </trkpt>
      <trkpt lat="48.00408" lon="-4.58031">
        <ele>10.23</ele>
        <time>2017-05-28T12:55:13Z</time>
      </trkpt>
      <trkpt lat="48.00412" lon="-4.58042">
        <ele>10.23</ele>
        <time>2017-05-28T12:55:19Z</time>
      </trkpt>
      <trkpt lat="48.00419" lon="-4.58051">
        <ele>10.23</ele>
        <time>2017-05-28T12:55:25Z</time>
      </trkpt>
      <trkpt lat="48.00433" lon="-4.58062">
        <ele>11.67</ele>
        <time>2017-05-28T12:55:38Z</time>
      </trkpt>
      <trkpt lat="48.00439" lon="-4.58069">
        <ele>13.12</ele>
        <time>2017-05-28T12:55:44Z</time>
      </trkpt>
      <trkpt lat="48.00454" lon="-4.5809">
        <ele>12.15</ele>
        <time>2017-05-28T12:55:57Z</time>
      </trkpt>
      <trkpt lat="48.00461" lon="-4.58096">
        <ele>12.15</ele>
        <time>2017-05-28T12:56:04Z</time>
      </trkpt>
      <trkpt lat="48.00474" lon="-4.58115">
        <ele>13.12</ele>
        <time>2017-05-28T12:56:18Z</time>
      </trkpt>
      <trkpt lat="48.00489" lon="-4.58133">
        <ele>14.08</ele>
        <time>2017-05-28T12:56:34Z</time>
      </trkpt>
      <trkpt lat="48.005" lon="-4.5817">
        <ele>14.56</ele>
        <time>2017-05-28T12:56:51Z</time>
      </trkpt>
      <trkpt lat="48.00513" lon="-4.58203">
        <ele>16.96</ele>
        <time>2017-05-28T12:57:05Z</time>
      </trkpt>
      <trkpt lat="48.00515" lon="-4.58217">
        <ele>17.92</ele>
        <time>2017-05-28T12:57:14Z</time>
      </trkpt>
      <trkpt lat="48.00513" lon="-4.58243">
        <ele>16.96</ele>
        <time>2017-05-28T12:57:25Z</time>
      </trkpt>
      <trkpt lat="48.0051" lon="-4.5826">
        <ele>16.48</ele>
        <time>2017-05-28T12:57:33Z</time>
      </trkpt>
      <trkpt lat="48.00509" lon="-4.58288">
        <ele>15.52</ele>
        <time>2017-05-28T12:57:43Z</time>
      </trkpt>
      <trkpt lat="48.00511" lon="-4.58323">
        <ele>13.6</ele>
        <time>2017-05-28T12:57:58Z</time>
      </trkpt>
      <trkpt lat="48.00505" lon="-4.58344">
        <ele>14.08</ele>
        <time>2017-05-28T12:58:08Z</time>
      </trkpt>
      <trkpt lat="48.00503" lon="-4.58351">
        <ele>14.08</ele>
        <time>2017-05-28T12:58:12Z</time>
      </trkpt>
      <trkpt lat="48.0051" lon="-4.58387">
        <ele>14.56</ele>
        <time>2017-05-28T12:58:27Z</time>
      </trkpt>
      <trkpt lat="48.0052" lon="-4.58408">
        <ele>14.56</ele>
        <time>2017-05-28T12:58:41Z</time>
      </trkpt>
      <trkpt lat="48.00529" lon="-4.5844">
        <ele>12.15</ele>
        <time>2017-05-28T12:58:57Z</time>
      </trkpt>
      <trkpt lat="48.00548" lon="-4.58471">
        <ele>12.63</ele>
        <time>2017-05-28T12:59:16Z</time>
      </trkpt>
      <trkpt lat="48.00561" lon="-4.58511">
        <ele>12.15</ele>
        <time>2017-05-28T12:59:35Z</time>
      </trkpt>
      <trkpt lat="48.00579" lon="-4.5854">
        <ele>13.12</ele>
        <time>2017-05-28T12:59:52Z</time>
      </trkpt>
      <trkpt lat="48.00598" lon="-4.58568">
        <ele>14.56</ele>
        <time>2017-05-28T13:00:10Z</time>
      </trkpt>
      <trkpt lat="48.0062" lon="-4.58587">
        <ele>14.56</ele>
        <time>2017-05-28T13:00:27Z</time>
      </trkpt>
      <trkpt lat="48.00635" lon="-4.58595">
        <ele>16.48</ele>
        <time>2017-05-28T13:00:40Z</time>
      </trkpt>
      <trkpt lat="48.0064" lon="-4.58602">
        <ele>18.4</ele>
        <time>2017-05-28T13:00:46Z</time>
      </trkpt>
      <trkpt lat="48.00644" lon="-4.58609">
        <ele>19.84</ele>
        <time>2017-05-28T13:00:52Z</time>
      </trkpt>
      <trkpt lat="48.00662" lon="-4.58628">
        <ele>22.25</ele>
        <time>2017-05-28T13:01:08Z</time>
      </trkpt>
      <trkpt lat="48.00673" lon="-4.58646">
        <ele>20.81</ele>
        <time>2017-05-28T13:01:20Z</time>
      </trkpt>
      <trkpt lat="48.00684" lon="-4.58671">
        <ele>19.84</ele>
        <time>2017-05-28T13:01:34Z</time>
      </trkpt>
      <trkpt lat="48.00684" lon="-4.58689">
        <ele>19.36</ele>
        <time>2017-05-28T13:01:43Z</time>
      </trkpt>
      <trkpt lat="48.00683" lon="-4.5871">
        <ele>18.4</ele>
        <time>2017-05-28T13:01:54Z</time>
      </trkpt>
      <trkpt lat="48.00687" lon="-4.58719">
        <ele>17.44</ele>
        <time>2017-05-28T13:02:00Z</time>
      </trkpt>
      <trkpt lat="48.0069" lon="-4.58722">
        <ele>17.44</ele>
        <time>2017-05-28T13:02:03Z</time>
      </trkpt>
      <trkpt lat="48.00694" lon="-4.58728">
        <ele>17.44</ele>
        <time>2017-05-28T13:02:07Z</time>
      </trkpt>
      <trkpt lat="48.00707" lon="-4.58751">
        <ele>16.48</ele>
        <time>2017-05-28T13:02:21Z</time>
      </trkpt>
      <trkpt lat="48.00712" lon="-4.58756">
        <ele>14.56</ele>
        <time>2017-05-28T13:02:27Z</time>
      </trkpt>
      <trkpt lat="48.00714" lon="-4.5876">
        <ele>14.08</ele>
        <time>2017-05-28T13:02:30Z</time>
      </trkpt>
      <trkpt lat="48.00738" lon="-4.58775">
        <ele>13.6</ele>
        <time>2017-05-28T13:02:45Z</time>
      </trkpt>
      <trkpt lat="48.00746" lon="-4.58786">
        <ele>13.12</ele>
        <time>2017-05-28T13:02:58Z</time>
      </trkpt>
      <trkpt lat="48.00747" lon="-4.58789">
        <ele>12.63</ele>
        <time>2017-05-28T13:03:01Z</time>
      </trkpt>
      <trkpt lat="48.00751" lon="-4.58818">
        <ele>9.27</ele>
        <time>2017-05-28T13:03:15Z</time>
      </trkpt>
      <trkpt lat="48.00754" lon="-4.58838">
        <ele>8.79</ele>
        <time>2017-05-28T13:03:22Z</time>
      </trkpt>
      <trkpt lat="48.00751" lon="-4.58847">
        <ele>8.31</ele>
        <time>2017-05-28T13:03:29Z</time>
      </trkpt>
      <trkpt lat="48.00749" lon="-4.58867">
        <ele>8.79</ele>
        <time>2017-05-28T13:03:38Z</time>
      </trkpt>
      <trkpt lat="48.00746" lon="-4.58879">
        <ele>8.79</ele>
        <time>2017-05-28T13:03:43Z</time>
      </trkpt>
      <trkpt lat="48.00746" lon="-4.58892">
        <ele>7.83</ele>
        <time>2017-05-28T13:03:49Z</time>
      </trkpt>
      <trkpt lat="48.00746" lon="-4.58897">
        <ele>7.35</ele>
        <time>2017-05-28T13:03:51Z</time>
      </trkpt>
      <trkpt lat="48.0074" lon="-4.58922">
        <ele>5.91</ele>
        <time>2017-05-28T13:04:04Z</time>
      </trkpt>
      <trkpt lat="48.00739" lon="-4.58925">
        <ele>5.91</ele>
        <time>2017-05-28T13:04:06Z</time>
      </trkpt>
      <trkpt lat="48.00734" lon="-4.58944">
        <ele>6.39</ele>
        <time>2017-05-28T13:04:14Z</time>
      </trkpt>
      <trkpt lat="48.00731" lon="-4.58952">
        <ele>6.39</ele>
        <time>2017-05-28T13:04:19Z</time>
      </trkpt>
      <trkpt lat="48.0073" lon="-4.58955">
        <ele>6.39</ele>
        <time>2017-05-28T13:04:21Z</time>
      </trkpt>
      <trkpt lat="48.00727" lon="-4.58963">
        <ele>7.35</ele>
        <time>2017-05-28T13:04:26Z</time>
      </trkpt>
      <trkpt lat="48.00721" lon="-4.58989">
        <ele>9.75</ele>
        <time>2017-05-28T13:04:38Z</time>
      </trkpt>
      <trkpt lat="48.00721" lon="-4.58994">
        <ele>9.75</ele>
        <time>2017-05-28T13:04:40Z</time>
      </trkpt>
      <trkpt lat="48.0072" lon="-4.59004">
        <ele>9.75</ele>
        <time>2017-05-28T13:04:44Z</time>
      </trkpt>
      <trkpt lat="48.00717" lon="-4.59038">
        <ele>9.75</ele>
        <time>2017-05-28T13:04:59Z</time>
      </trkpt>
      <trkpt lat="48.00713" lon="-4.59049">
        <ele>9.27</ele>
        <time>2017-05-28T13:05:05Z</time>
      </trkpt>
      <trkpt lat="48.00705" lon="-4.59071">
        <ele>8.79</ele>
        <time>2017-05-28T13:05:15Z</time>
      </trkpt>
      <trkpt lat="48.007" lon="-4.59089">
        <ele>10.71</ele>
        <time>2017-05-28T13:05:26Z</time>
      </trkpt>
      <trkpt lat="48.00698" lon="-4.591">
        <ele>10.23</ele>
        <time>2017-05-28T13:05:31Z</time>
      </trkpt>
      <trkpt lat="48.00696" lon="-4.59106">
        <ele>9.75</ele>
        <time>2017-05-28T13:05:38Z</time>
      </trkpt>
      <trkpt lat="48.00687" lon="-4.59126">
        <ele>8.79</ele>
        <time>2017-05-28T13:05:51Z</time>
      </trkpt>
      <trkpt lat="48.00683" lon="-4.59132">
        <ele>9.27</ele>
        <time>2017-05-28T13:05:55Z</time>
      </trkpt>
      <trkpt lat="48.00675" lon="-4.59155">
        <ele>10.23</ele>
        <time>2017-05-28T13:06:08Z</time>
      </trkpt>
      <trkpt lat="48.00674" lon="-4.59159">
        <ele>10.23</ele>
        <time>2017-05-28T13:06:10Z</time>
      </trkpt>
      <trkpt lat="48.00678" lon="-4.59185">
        <ele>11.67</ele>
        <time>2017-05-28T13:06:26Z</time>
      </trkpt>
      <trkpt lat="48.00678" lon="-4.59189">
        <ele>11.67</ele>
        <time>2017-05-28T13:06:34Z</time>
      </trkpt>
      <trkpt lat="48.00684" lon="-4.59182">
        <ele>12.15</ele>
        <time>2017-05-28T13:06:41Z</time>
      </trkpt>
      <trkpt lat="48.00686" lon="-4.59189">
        <ele>12.63</ele>
        <time>2017-05-28T13:06:45Z</time>
      </trkpt>
      <trkpt lat="48.00698" lon="-4.59213">
        <ele>12.63</ele>
        <time>2017-05-28T13:07:00Z</time>
      </trkpt>
      <trkpt lat="48.00697" lon="-4.59218">
        <ele>12.63</ele>
        <time>2017-05-28T13:07:03Z</time>
      </trkpt>
      <trkpt lat="48.00695" lon="-4.59221">
        <ele>12.15</ele>
        <time>2017-05-28T13:07:06Z</time>
      </trkpt>
      <trkpt lat="48.00683" lon="-4.59217">
        <ele>11.19</ele>
        <time>2017-05-28T13:07:18Z</time>
      </trkpt>
      <trkpt lat="48.00681" lon="-4.59217">
        <ele>11.19</ele>
        <time>2017-05-28T13:07:20Z</time>
      </trkpt>
      <trkpt lat="48.00672" lon="-4.59213">
        <ele>11.19</ele>
        <time>2017-05-28T13:07:37Z</time>
      </trkpt>
      <trkpt lat="48.00671" lon="-4.59213">
        <ele>11.67</ele>
        <time>2017-05-28T13:08:03Z</time>
      </trkpt>
      <trkpt lat="48.00671" lon="-4.59214">
        <ele>12.15</ele>
        <time>2017-05-28T13:08:34Z</time>
      </trkpt>
      <trkpt lat="48.0067" lon="-4.59214">
        <ele>12.15</ele>
        <time>2017-05-28T13:09:02Z</time>
      </trkpt>
      <trkpt lat="48.0067" lon="-4.59214">
        <ele>12.15</ele>
        <time>2017-05-28T13:09:21Z</time>
      </trkpt>
      <trkpt lat="48.00669" lon="-4.59213">
        <ele>12.63</ele>
        <time>2017-05-28T13:09:53Z</time>
      </trkpt>
      <trkpt lat="48.00669" lon="-4.59214">
        <ele>12.63</ele>
        <time>2017-05-28T13:10:25Z</time>
      </trkpt>
      <trkpt lat="48.00669" lon="-4.59213">
        <ele>12.63</ele>
        <time>2017-05-28T13:10:58Z</time>
      </trkpt>
      <trkpt lat="48.00669" lon="-4.59213">
        <ele>12.63</ele>
        <time>2017-05-28T13:11:29Z</time>
      </trkpt>
      <trkpt lat="48.00663" lon="-4.59217">
        <ele>12.63</ele>
        <time>2017-05-28T13:12:30Z</time>
      </trkpt>
      <trkpt lat="48.00665" lon="-4.59209">
        <ele>11.67</ele>
        <time>2017-05-28T13:17:37Z</time>
      </trkpt>
      <trkpt lat="48.0067" lon="-4.59213">
        <ele>12.63</ele>
        <time>2017-05-28T13:18:09Z</time>
      </trkpt>
      <trkpt lat="48.00674" lon="-4.59214">
        <ele>13.6</ele>
        <time>2017-05-28T13:18:21Z</time>
      </trkpt>
      <trkpt lat="48.00683" lon="-4.59217">
        <ele>13.12</ele>
        <time>2017-05-28T13:18:30Z</time>
      </trkpt>
      <trkpt lat="48.007" lon="-4.59218">
        <ele>13.6</ele>
        <time>2017-05-28T13:18:46Z</time>
      </trkpt>
      <trkpt lat="48.00717" lon="-4.59221">
        <ele>13.12</ele>
        <time>2017-05-28T13:19:00Z</time>
      </trkpt>
      <trkpt lat="48.00728" lon="-4.59219">
        <ele>10.71</ele>
        <time>2017-05-28T13:19:12Z</time>
      </trkpt>
      <trkpt lat="48.00742" lon="-4.59221">
        <ele>10.23</ele>
        <time>2017-05-28T13:19:25Z</time>
      </trkpt>
      <trkpt lat="48.00758" lon="-4.59222">
        <ele>12.15</ele>
        <time>2017-05-28T13:19:38Z</time>
      </trkpt>
      <trkpt lat="48.00777" lon="-4.59225">
        <ele>13.12</ele>
        <time>2017-05-28T13:19:53Z</time>
      </trkpt>
      <trkpt lat="48.00789" lon="-4.59225">
        <ele>12.63</ele>
        <time>2017-05-28T13:20:03Z</time>
      </trkpt>
      <trkpt lat="48.00807" lon="-4.59216">
        <ele>12.63</ele>
        <time>2017-05-28T13:20:18Z</time>
      </trkpt>
      <trkpt lat="48.00818" lon="-4.59212">
        <ele>12.15</ele>
        <time>2017-05-28T13:20:27Z</time>
      </trkpt>
      <trkpt lat="48.00826" lon="-4.59204">
        <ele>11.19</ele>
        <time>2017-05-28T13:20:35Z</time>
      </trkpt>
      <trkpt lat="48.00834" lon="-4.59194">
        <ele>11.19</ele>
        <time>2017-05-28T13:20:44Z</time>
      </trkpt>
      <trkpt lat="48.00839" lon="-4.59192">
        <ele>11.67</ele>
        <time>2017-05-28T13:20:48Z</time>
      </trkpt>
      <trkpt lat="48.00859" lon="-4.59187">
        <ele>12.15</ele>
        <time>2017-05-28T13:21:04Z</time>
      </trkpt>
      <trkpt lat="48.00877" lon="-4.59181">
        <ele>9.75</ele>
        <time>2017-05-28T13:21:18Z</time>
      </trkpt>
      <trkpt lat="48.00895" lon="-4.59176">
        <ele>8.31</ele>
        <time>2017-05-28T13:21:31Z</time>
      </trkpt>
      <trkpt lat="48.009" lon="-4.59175">
        <ele>8.79</ele>
        <time>2017-05-28T13:21:36Z</time>
      </trkpt>
      <trkpt lat="48.00902" lon="-4.59175">
        <ele>9.27</ele>
        <time>2017-05-28T13:21:38Z</time>
      </trkpt>
      <trkpt lat="48.00912" lon="-4.5917">
        <ele>8.79</ele>
        <time>2017-05-28T13:21:49Z</time>
      </trkpt>
      <trkpt lat="48.00932" lon="-4.59154">
        <ele>7.35</ele>
        <time>2017-05-28T13:22:06Z</time>
      </trkpt>
      <trkpt lat="48.00943" lon="-4.59147">
        <ele>8.31</ele>
        <time>2017-05-28T13:22:15Z</time>
      </trkpt>
      <trkpt lat="48.00956" lon="-4.59148">
        <ele>8.79</ele>
        <time>2017-05-28T13:22:25Z</time>
      </trkpt>
      <trkpt lat="48.00975" lon="-4.59134">
        <ele>9.27</ele>
        <time>2017-05-28T13:22:40Z</time>
      </trkpt>
      <trkpt lat="48.00979" lon="-4.59129">
        <ele>8.79</ele>
        <time>2017-05-28T13:22:45Z</time>
      </trkpt>
      <trkpt lat="48.00982" lon="-4.59122">
        <ele>9.27</ele>
        <time>2017-05-28T13:22:59Z</time>
      </trkpt>
      <trkpt lat="48.00993" lon="-4.5913">
        <ele>7.83</ele>
        <time>2017-05-28T13:23:11Z</time>
      </trkpt>
      <trkpt lat="48.00998" lon="-4.59132">
        <ele>7.83</ele>
        <time>2017-05-28T13:23:16Z</time>
      </trkpt>
      <trkpt lat="48.01005" lon="-4.59138">
        <ele>4.94</ele>
        <time>2017-05-28T13:23:28Z</time>
      </trkpt>
      <trkpt lat="48.01009" lon="-4.59142">
        <ele>4.46</ele>
        <time>2017-05-28T13:23:33Z</time>
      </trkpt>
      <trkpt lat="48.01011" lon="-4.59149">
        <ele>3.98</ele>
        <time>2017-05-28T13:23:38Z</time>
      </trkpt>
      <trkpt lat="48.01014" lon="-4.59153">
        <ele>3.02</ele>
        <time>2017-05-28T13:23:43Z</time>
      </trkpt>
      <trkpt lat="48.01015" lon="-4.59156">
        <ele>2.54</ele>
        <time>2017-05-28T13:23:45Z</time>
      </trkpt>
      <trkpt lat="48.01021" lon="-4.59165">
        <ele>1.58</ele>
        <time>2017-05-28T13:23:59Z</time>
      </trkpt>
      <trkpt lat="48.01024" lon="-4.59167">
        <ele>2.06</ele>
        <time>2017-05-28T13:24:11Z</time>
      </trkpt>
      <trkpt lat="48.01032" lon="-4.59172">
        <ele>2.54</ele>
        <time>2017-05-28T13:24:22Z</time>
      </trkpt>
      <trkpt lat="48.01039" lon="-4.59178">
        <ele>2.54</ele>
        <time>2017-05-28T13:24:29Z</time>
      </trkpt>
      <trkpt lat="48.01054" lon="-4.59192">
        <ele>1.58</ele>
        <time>2017-05-28T13:24:43Z</time>
      </trkpt>
      <trkpt lat="48.01065" lon="-4.59204">
        <ele>2.06</ele>
        <time>2017-05-28T13:24:56Z</time>
      </trkpt>
      <trkpt lat="48.01076" lon="-4.59218">
        <ele>1.58</ele>
        <time>2017-05-28T13:25:09Z</time>
      </trkpt>
      <trkpt lat="48.01092" lon="-4.59237">
        <ele>1.1</ele>
        <time>2017-05-28T13:25:25Z</time>
      </trkpt>
      <trkpt lat="48.01103" lon="-4.59255">
        <ele>0.14</ele>
        <time>2017-05-28T13:25:39Z</time>
      </trkpt>
      <trkpt lat="48.0111" lon="-4.59268">
        <ele>-1.3</ele>
        <time>2017-05-28T13:25:49Z</time>
      </trkpt>
      <trkpt lat="48.01115" lon="-4.59274">
        <ele>-1.3</ele>
        <time>2017-05-28T13:25:54Z</time>
      </trkpt>
      <trkpt lat="48.01121" lon="-4.59279">
        <ele>-1.3</ele>
        <time>2017-05-28T13:26:00Z</time>
      </trkpt>
      <trkpt lat="48.01138" lon="-4.59292">
        <ele>1.1</ele>
        <time>2017-05-28T13:26:14Z</time>
      </trkpt>
      <trkpt lat="48.0115" lon="-4.59306">
        <ele>1.1</ele>
        <time>2017-05-28T13:26:26Z</time>
      </trkpt>
      <trkpt lat="48.01164" lon="-4.59326">
        <ele>0.62</ele>
        <time>2017-05-28T13:26:40Z</time>
      </trkpt>
      <trkpt lat="48.01178" lon="-4.59344">
        <ele>1.1</ele>
        <time>2017-05-28T13:26:54Z</time>
      </trkpt>
      <trkpt lat="48.01191" lon="-4.59363">
        <ele>2.06</ele>
        <time>2017-05-28T13:27:09Z</time>
      </trkpt>
      <trkpt lat="48.01204" lon="-4.59378">
        <ele>0.62</ele>
        <time>2017-05-28T13:27:21Z</time>
      </trkpt>
      <trkpt lat="48.01219" lon="-4.594">
        <ele>0.14</ele>
        <time>2017-05-28T13:27:37Z</time>
      </trkpt>
      <trkpt lat="48.0123" lon="-4.59416">
        <ele>-1.3</ele>
        <time>2017-05-28T13:27:50Z</time>
      </trkpt>
      <trkpt lat="48.01242" lon="-4.59435">
        <ele>0.14</ele>
        <time>2017-05-28T13:28:04Z</time>
      </trkpt>
      <trkpt lat="48.01253" lon="-4.59452">
        <ele>1.1</ele>
        <time>2017-05-28T13:28:17Z</time>
      </trkpt>
      <trkpt lat="48.01264" lon="-4.59469">
        <ele>-1.3</ele>
        <time>2017-05-28T13:28:30Z</time>
      </trkpt>
      <trkpt lat="48.01275" lon="-4.59486">
        <ele>-2.75</ele>
        <time>2017-05-28T13:28:44Z</time>
      </trkpt>
      <trkpt lat="48.01286" lon="-4.59502">
        <ele>-2.75</ele>
        <time>2017-05-28T13:28:56Z</time>
      </trkpt>
      <trkpt lat="48.01287" lon="-4.59503">
        <ele>-2.75</ele>
        <time>2017-05-28T13:28:57Z</time>
      </trkpt>
      <trkpt lat="48.01291" lon="-4.5951">
        <ele>-3.23</ele>
        <time>2017-05-28T13:29:03Z</time>
      </trkpt>
      <trkpt lat="48.01298" lon="-4.59521">
        <ele>-3.71</ele>
        <time>2017-05-28T13:29:10Z</time>
      </trkpt>
      <trkpt lat="48.01311" lon="-4.59542">
        <ele>-1.3</ele>
        <time>2017-05-28T13:29:26Z</time>
      </trkpt>
      <trkpt lat="48.01319" lon="-4.59551">
        <ele>-0.82</ele>
        <time>2017-05-28T13:29:32Z</time>
      </trkpt>
      <trkpt lat="48.0133" lon="-4.59567">
        <ele>1.1</ele>
        <time>2017-05-28T13:29:45Z</time>
      </trkpt>
      <trkpt lat="48.01334" lon="-4.59571">
        <ele>1.58</ele>
        <time>2017-05-28T13:29:49Z</time>
      </trkpt>
      <trkpt lat="48.01336" lon="-4.59576">
        <ele>2.06</ele>
        <time>2017-05-28T13:29:53Z</time>
      </trkpt>
      <trkpt lat="48.01341" lon="-4.5958">
        <ele>2.06</ele>
        <time>2017-05-28T13:29:57Z</time>
      </trkpt>
      <trkpt lat="48.01349" lon="-4.59587">
        <ele>3.02</ele>
        <time>2017-05-28T13:30:04Z</time>
      </trkpt>
      <trkpt lat="48.01365" lon="-4.59595">
        <ele>3.98</ele>
        <time>2017-05-28T13:30:19Z</time>
      </trkpt>
      <trkpt lat="48.01379" lon="-4.59618">
        <ele>5.42</ele>
        <time>2017-05-28T13:30:34Z</time>
      </trkpt>
      <trkpt lat="48.01386" lon="-4.59645">
        <ele>4.94</ele>
        <time>2017-05-28T13:30:49Z</time>
      </trkpt>
      <trkpt lat="48.01394" lon="-4.5967">
        <ele>4.46</ele>
        <time>2017-05-28T13:31:04Z</time>
      </trkpt>
      <trkpt lat="48.01396" lon="-4.59674">
        <ele>3.98</ele>
        <time>2017-05-28T13:31:07Z</time>
      </trkpt>
      <trkpt lat="48.01405" lon="-4.59702">
        <ele>2.06</ele>
        <time>2017-05-28T13:31:22Z</time>
      </trkpt>
      <trkpt lat="48.01418" lon="-4.59726">
        <ele>1.1</ele>
        <time>2017-05-28T13:31:37Z</time>
      </trkpt>
      <trkpt lat="48.01432" lon="-4.59749">
        <ele>2.06</ele>
        <time>2017-05-28T13:31:53Z</time>
      </trkpt>
      <trkpt lat="48.01435" lon="-4.59756">
        <ele>2.06</ele>
        <time>2017-05-28T13:31:58Z</time>
      </trkpt>
      <trkpt lat="48.01443" lon="-4.59772">
        <ele>2.06</ele>
        <time>2017-05-28T13:32:07Z</time>
      </trkpt>
      <trkpt lat="48.01461" lon="-4.59789">
        <ele>2.54</ele>
        <time>2017-05-28T13:32:23Z</time>
      </trkpt>
      <trkpt lat="48.01475" lon="-4.59802">
        <ele>5.42</ele>
        <time>2017-05-28T13:32:36Z</time>
      </trkpt>
      <trkpt lat="48.01478" lon="-4.59805">
        <ele>5.42</ele>
        <time>2017-05-28T13:32:38Z</time>
      </trkpt>
      <trkpt lat="48.01483" lon="-4.59811">
        <ele>5.91</ele>
        <time>2017-05-28T13:32:42Z</time>
      </trkpt>
      <trkpt lat="48.01498" lon="-4.59823">
        <ele>7.83</ele>
        <time>2017-05-28T13:32:54Z</time>
      </trkpt>
      <trkpt lat="48.01512" lon="-4.59834">
        <ele>9.27</ele>
        <time>2017-05-28T13:33:06Z</time>
      </trkpt>
      <trkpt lat="48.0152" lon="-4.59834">
        <ele>10.23</ele>
        <time>2017-05-28T13:33:13Z</time>
      </trkpt>
      <trkpt lat="48.01531" lon="-4.59834">
        <ele>10.71</ele>
        <time>2017-05-28T13:33:26Z</time>
      </trkpt>
      <trkpt lat="48.01531" lon="-4.59836">
        <ele>9.75</ele>
        <time>2017-05-28T13:33:43Z</time>
      </trkpt>
      <trkpt lat="48.0153" lon="-4.59837">
        <ele>7.83</ele>
        <time>2017-05-28T13:34:10Z</time>
      </trkpt>
      <trkpt lat="48.0153" lon="-4.59837">
        <ele>6.87</ele>
        <time>2017-05-28T13:34:42Z</time>
      </trkpt>
      <trkpt lat="48.0153" lon="-4.59839">
        <ele>6.39</ele>
        <time>2017-05-28T13:35:03Z</time>
      </trkpt>
      <trkpt lat="48.0153" lon="-4.59839">
        <ele>5.91</ele>
        <time>2017-05-28T13:35:36Z</time>
      </trkpt>
      <trkpt lat="48.01527" lon="-4.59847">
        <ele>7.35</ele>
        <time>2017-05-28T13:35:51Z</time>
      </trkpt>
      <trkpt lat="48.01528" lon="-4.59859">
        <ele>7.35</ele>
        <time>2017-05-28T13:36:03Z</time>
      </trkpt>
      <trkpt lat="48.01529" lon="-4.59864">
        <ele>7.35</ele>
        <time>2017-05-28T13:36:14Z</time>
      </trkpt>
      <trkpt lat="48.01532" lon="-4.59882">
        <ele>8.31</ele>
        <time>2017-05-28T13:36:27Z</time>
      </trkpt>
      <trkpt lat="48.01541" lon="-4.59896">
        <ele>7.83</ele>
        <time>2017-05-28T13:36:41Z</time>
      </trkpt>
      <trkpt lat="48.01546" lon="-4.59904">
        <ele>7.35</ele>
        <time>2017-05-28T13:36:49Z</time>
      </trkpt>
      <trkpt lat="48.01548" lon="-4.59914">
        <ele>7.83</ele>
        <time>2017-05-28T13:36:55Z</time>
      </trkpt>
      <trkpt lat="48.01549" lon="-4.5993">
        <ele>7.83</ele>
        <time>2017-05-28T13:37:03Z</time>
      </trkpt>
      <trkpt lat="48.01551" lon="-4.5996">
        <ele>6.87</ele>
        <time>2017-05-28T13:37:18Z</time>
      </trkpt>
      <trkpt lat="48.0155" lon="-4.59987">
        <ele>6.87</ele>
        <time>2017-05-28T13:37:32Z</time>
      </trkpt>
      <trkpt lat="48.0155" lon="-4.60006">
        <ele>8.79</ele>
        <time>2017-05-28T13:37:41Z</time>
      </trkpt>
      <trkpt lat="48.01548" lon="-4.60026">
        <ele>9.27</ele>
        <time>2017-05-28T13:37:50Z</time>
      </trkpt>
      <trkpt lat="48.0155" lon="-4.60066">
        <ele>10.23</ele>
        <time>2017-05-28T13:38:08Z</time>
      </trkpt>
      <trkpt lat="48.01551" lon="-4.60071">
        <ele>10.23</ele>
        <time>2017-05-28T13:38:11Z</time>
      </trkpt>
      <trkpt lat="48.01552" lon="-4.60081">
        <ele>10.71</ele>
        <time>2017-05-28T13:38:16Z</time>
      </trkpt>
      <trkpt lat="48.01553" lon="-4.60091">
        <ele>11.19</ele>
        <time>2017-05-28T13:38:21Z</time>
      </trkpt>
      <trkpt lat="48.01547" lon="-4.60122">
        <ele>10.23</ele>
        <time>2017-05-28T13:38:37Z</time>
      </trkpt>
      <trkpt lat="48.01546" lon="-4.60126">
        <ele>9.75</ele>
        <time>2017-05-28T13:38:40Z</time>
      </trkpt>
      <trkpt lat="48.01543" lon="-4.6014">
        <ele>9.75</ele>
        <time>2017-05-28T13:38:48Z</time>
      </trkpt>
      <trkpt lat="48.0154" lon="-4.60159">
        <ele>9.75</ele>
        <time>2017-05-28T13:38:58Z</time>
      </trkpt>
      <trkpt lat="48.0154" lon="-4.60169">
        <ele>9.27</ele>
        <time>2017-05-28T13:39:03Z</time>
      </trkpt>
      <trkpt lat="48.0154" lon="-4.60176">
        <ele>9.75</ele>
        <time>2017-05-28T13:39:07Z</time>
      </trkpt>
      <trkpt lat="48.01545" lon="-4.60202">
        <ele>9.27</ele>
        <time>2017-05-28T13:39:21Z</time>
      </trkpt>
      <trkpt lat="48.01545" lon="-4.6021">
        <ele>8.79</ele>
        <time>2017-05-28T13:39:25Z</time>
      </trkpt>
      <trkpt lat="48.01554" lon="-4.60231">
        <ele>7.35</ele>
        <time>2017-05-28T13:39:40Z</time>
      </trkpt>
      <trkpt lat="48.01555" lon="-4.60234">
        <ele>6.87</ele>
        <time>2017-05-28T13:39:43Z</time>
      </trkpt>
      <trkpt lat="48.01558" lon="-4.60248">
        <ele>6.39</ele>
        <time>2017-05-28T13:39:51Z</time>
      </trkpt>
      <trkpt lat="48.01553" lon="-4.6026">
        <ele>7.35</ele>
        <time>2017-05-28T13:40:00Z</time>
      </trkpt>
      <trkpt lat="48.01547" lon="-4.6028">
        <ele>10.71</ele>
        <time>2017-05-28T13:40:11Z</time>
      </trkpt>
      <trkpt lat="48.01547" lon="-4.60287">
        <ele>11.19</ele>
        <time>2017-05-28T13:40:15Z</time>
      </trkpt>
      <trkpt lat="48.01549" lon="-4.60321">
        <ele>14.08</ele>
        <time>2017-05-28T13:40:31Z</time>
      </trkpt>
      <trkpt lat="48.01551" lon="-4.60328">
        <ele>15.52</ele>
        <time>2017-05-28T13:40:35Z</time>
      </trkpt>
      <trkpt lat="48.01554" lon="-4.60359">
        <ele>18.88</ele>
        <time>2017-05-28T13:40:52Z</time>
      </trkpt>
      <trkpt lat="48.01554" lon="-4.60364">
        <ele>19.84</ele>
        <time>2017-05-28T13:40:56Z</time>
      </trkpt>
      <trkpt lat="48.01559" lon="-4.60383">
        <ele>20.32</ele>
        <time>2017-05-28T13:41:09Z</time>
      </trkpt>
      <trkpt lat="48.01563" lon="-4.60396">
        <ele>19.84</ele>
        <time>2017-05-28T13:41:16Z</time>
      </trkpt>
      <trkpt lat="48.01567" lon="-4.60406">
        <ele>19.36</ele>
        <time>2017-05-28T13:41:22Z</time>
      </trkpt>
      <trkpt lat="48.01569" lon="-4.60414">
        <ele>18.88</ele>
        <time>2017-05-28T13:41:26Z</time>
      </trkpt>
      <trkpt lat="48.01571" lon="-4.60426">
        <ele>18.88</ele>
        <time>2017-05-28T13:41:32Z</time>
      </trkpt>
      <trkpt lat="48.01574" lon="-4.60434">
        <ele>18.88</ele>
        <time>2017-05-28T13:41:37Z</time>
      </trkpt>
      <trkpt lat="48.01577" lon="-4.60458">
        <ele>18.88</ele>
        <time>2017-05-28T13:41:49Z</time>
      </trkpt>
      <trkpt lat="48.01579" lon="-4.60482">
        <ele>18.4</ele>
        <time>2017-05-28T13:42:02Z</time>
      </trkpt>
      <trkpt lat="48.01585" lon="-4.60512">
        <ele>16.48</ele>
        <time>2017-05-28T13:42:17Z</time>
      </trkpt>
      <trkpt lat="48.0159" lon="-4.6053">
        <ele>16</ele>
        <time>2017-05-28T13:42:27Z</time>
      </trkpt>
      <trkpt lat="48.01596" lon="-4.60554">
        <ele>16.96</ele>
        <time>2017-05-28T13:42:40Z</time>
      </trkpt>
      <trkpt lat="48.01598" lon="-4.60562">
        <ele>16.96</ele>
        <time>2017-05-28T13:42:44Z</time>
      </trkpt>
      <trkpt lat="48.01603" lon="-4.60585">
        <ele>17.92</ele>
        <time>2017-05-28T13:42:55Z</time>
      </trkpt>
      <trkpt lat="48.01607" lon="-4.60616">
        <ele>17.44</ele>
        <time>2017-05-28T13:43:10Z</time>
      </trkpt>
      <trkpt lat="48.01608" lon="-4.60622">
        <ele>17.92</ele>
        <time>2017-05-28T13:43:14Z</time>
      </trkpt>
      <trkpt lat="48.01613" lon="-4.60646">
        <ele>16</ele>
        <time>2017-05-28T13:43:25Z</time>
      </trkpt>
      <trkpt lat="48.01614" lon="-4.60649">
        <ele>16</ele>
        <time>2017-05-28T13:43:27Z</time>
      </trkpt>
      <trkpt lat="48.01616" lon="-4.60659">
        <ele>15.52</ele>
        <time>2017-05-28T13:43:32Z</time>
      </trkpt>
      <trkpt lat="48.0162" lon="-4.60687">
        <ele>15.04</ele>
        <time>2017-05-28T13:43:46Z</time>
      </trkpt>
      <trkpt lat="48.01623" lon="-4.60701">
        <ele>14.56</ele>
        <time>2017-05-28T13:43:53Z</time>
      </trkpt>
      <trkpt lat="48.01629" lon="-4.60724">
        <ele>16</ele>
        <time>2017-05-28T13:44:05Z</time>
      </trkpt>
      <trkpt lat="48.01632" lon="-4.60729">
        <ele>16.48</ele>
        <time>2017-05-28T13:44:08Z</time>
      </trkpt>
      <trkpt lat="48.01635" lon="-4.60739">
        <ele>16.96</ele>
        <time>2017-05-28T13:44:14Z</time>
      </trkpt>
      <trkpt lat="48.0164" lon="-4.6075">
        <ele>16</ele>
        <time>2017-05-28T13:44:20Z</time>
      </trkpt>
      <trkpt lat="48.01642" lon="-4.60759">
        <ele>16</ele>
        <time>2017-05-28T13:44:24Z</time>
      </trkpt>
      <trkpt lat="48.01647" lon="-4.60778">
        <ele>13.6</ele>
        <time>2017-05-28T13:44:35Z</time>
      </trkpt>
      <trkpt lat="48.01648" lon="-4.60784">
        <ele>13.12</ele>
        <time>2017-05-28T13:44:39Z</time>
      </trkpt>
      <trkpt lat="48.01656" lon="-4.60803">
        <ele>10.71</ele>
        <time>2017-05-28T13:44:51Z</time>
      </trkpt>
      <trkpt lat="48.0166" lon="-4.60815">
        <ele>10.23</ele>
        <time>2017-05-28T13:44:58Z</time>
      </trkpt>
      <trkpt lat="48.01669" lon="-4.60835">
        <ele>7.35</ele>
        <time>2017-05-28T13:45:10Z</time>
      </trkpt>
      <trkpt lat="48.01676" lon="-4.60846">
        <ele>5.42</ele>
        <time>2017-05-28T13:45:17Z</time>
      </trkpt>
      <trkpt lat="48.01691" lon="-4.60866">
        <ele>4.94</ele>
        <time>2017-05-28T13:45:32Z</time>
      </trkpt>
      <trkpt lat="48.01696" lon="-4.60879">
        <ele>4.46</ele>
        <time>2017-05-28T13:45:39Z</time>
      </trkpt>
      <trkpt lat="48.01698" lon="-4.60881">
        <ele>4.94</ele>
        <time>2017-05-28T13:45:41Z</time>
      </trkpt>
      <trkpt lat="48.0171" lon="-4.60897">
        <ele>7.83</ele>
        <time>2017-05-28T13:45:54Z</time>
      </trkpt>
      <trkpt lat="48.01719" lon="-4.60912">
        <ele>10.71</ele>
        <time>2017-05-28T13:46:06Z</time>
      </trkpt>
      <trkpt lat="48.01734" lon="-4.60924">
        <ele>13.6</ele>
        <time>2017-05-28T13:46:20Z</time>
      </trkpt>
      <trkpt lat="48.01747" lon="-4.60929">
        <ele>13.12</ele>
        <time>2017-05-28T13:46:31Z</time>
      </trkpt>
      <trkpt lat="48.01755" lon="-4.60942">
        <ele>14.08</ele>
        <time>2017-05-28T13:46:45Z</time>
      </trkpt>
      <trkpt lat="48.01758" lon="-4.60949">
        <ele>15.04</ele>
        <time>2017-05-28T13:46:54Z</time>
      </trkpt>
      <trkpt lat="48.01771" lon="-4.60964">
        <ele>13.6</ele>
        <time>2017-05-28T13:47:08Z</time>
      </trkpt>
      <trkpt lat="48.01782" lon="-4.60978">
        <ele>14.08</ele>
        <time>2017-05-28T13:47:20Z</time>
      </trkpt>
      <trkpt lat="48.01784" lon="-4.60981">
        <ele>14.08</ele>
        <time>2017-05-28T13:47:23Z</time>
      </trkpt>
      <trkpt lat="48.01787" lon="-4.60984">
        <ele>14.56</ele>
        <time>2017-05-28T13:47:26Z</time>
      </trkpt>
      <trkpt lat="48.01791" lon="-4.60996">
        <ele>14.08</ele>
        <time>2017-05-28T13:47:34Z</time>
      </trkpt>
      <trkpt lat="48.01802" lon="-4.6101">
        <ele>14.56</ele>
        <time>2017-05-28T13:47:47Z</time>
      </trkpt>
      <trkpt lat="48.01803" lon="-4.61012">
        <ele>14.56</ele>
        <time>2017-05-28T13:47:48Z</time>
      </trkpt>
      <trkpt lat="48.01805" lon="-4.61015">
        <ele>14.56</ele>
        <time>2017-05-28T13:47:50Z</time>
      </trkpt>
      <trkpt lat="48.01814" lon="-4.61016">
        <ele>13.12</ele>
        <time>2017-05-28T13:47:58Z</time>
      </trkpt>
      <trkpt lat="48.01822" lon="-4.61018">
        <ele>12.63</ele>
        <time>2017-05-28T13:48:06Z</time>
      </trkpt>
      <trkpt lat="48.01832" lon="-4.61016">
        <ele>12.63</ele>
        <time>2017-05-28T13:48:14Z</time>
      </trkpt>
      <trkpt lat="48.01839" lon="-4.61017">
        <ele>12.15</ele>
        <time>2017-05-28T13:48:20Z</time>
      </trkpt>
      <trkpt lat="48.01851" lon="-4.61021">
        <ele>13.12</ele>
        <time>2017-05-28T13:48:33Z</time>
      </trkpt>
      <trkpt lat="48.01854" lon="-4.61026">
        <ele>13.12</ele>
        <time>2017-05-28T13:48:58Z</time>
      </trkpt>
      <trkpt lat="48.01855" lon="-4.61038">
        <ele>13.6</ele>
        <time>2017-05-28T13:49:11Z</time>
      </trkpt>
      <trkpt lat="48.01853" lon="-4.61043">
        <ele>14.56</ele>
        <time>2017-05-28T13:49:15Z</time>
      </trkpt>
      <trkpt lat="48.01853" lon="-4.61048">
        <ele>15.04</ele>
        <time>2017-05-28T13:49:18Z</time>
      </trkpt>
      <trkpt lat="48.01854" lon="-4.61056">
        <ele>15.04</ele>
        <time>2017-05-28T13:49:22Z</time>
      </trkpt>
      <trkpt lat="48.01854" lon="-4.61066">
        <ele>15.04</ele>
        <time>2017-05-28T13:49:30Z</time>
      </trkpt>
      <trkpt lat="48.01855" lon="-4.61082">
        <ele>16.96</ele>
        <time>2017-05-28T13:49:42Z</time>
      </trkpt>
      <trkpt lat="48.01857" lon="-4.61097">
        <ele>18.4</ele>
        <time>2017-05-28T13:49:50Z</time>
      </trkpt>
      <trkpt lat="48.01859" lon="-4.61114">
        <ele>19.36</ele>
        <time>2017-05-28T13:49:59Z</time>
      </trkpt>
      <trkpt lat="48.01861" lon="-4.61121">
        <ele>18.88</ele>
        <time>2017-05-28T13:50:03Z</time>
      </trkpt>
      <trkpt lat="48.01864" lon="-4.61144">
        <ele>18.88</ele>
        <time>2017-05-28T13:50:16Z</time>
      </trkpt>
      <trkpt lat="48.01864" lon="-4.61146">
        <ele>18.88</ele>
        <time>2017-05-28T13:50:17Z</time>
      </trkpt>
      <trkpt lat="48.01869" lon="-4.61157">
        <ele>19.84</ele>
        <time>2017-05-28T13:50:25Z</time>
      </trkpt>
      <trkpt lat="48.01873" lon="-4.61166">
        <ele>21.29</ele>
        <time>2017-05-28T13:50:31Z</time>
      </trkpt>
      <trkpt lat="48.01878" lon="-4.61177">
        <ele>22.25</ele>
        <time>2017-05-28T13:50:37Z</time>
      </trkpt>
      <trkpt lat="48.0188" lon="-4.6118">
        <ele>22.73</ele>
        <time>2017-05-28T13:50:39Z</time>
      </trkpt>
      <trkpt lat="48.0188" lon="-4.6119">
        <ele>24.65</ele>
        <time>2017-05-28T13:50:45Z</time>
      </trkpt>
      <trkpt lat="48.01877" lon="-4.61197">
        <ele>25.13</ele>
        <time>2017-05-28T13:50:52Z</time>
      </trkpt>
      <trkpt lat="48.01868" lon="-4.61203">
        <ele>23.69</ele>
        <time>2017-05-28T13:51:03Z</time>
      </trkpt>
      <trkpt lat="48.01849" lon="-4.61216">
        <ele>24.17</ele>
        <time>2017-05-28T13:51:18Z</time>
      </trkpt>
      <trkpt lat="48.01846" lon="-4.61217">
        <ele>23.69</ele>
        <time>2017-05-28T13:51:21Z</time>
      </trkpt>
      <trkpt lat="48.01833" lon="-4.61235">
        <ele>21.77</ele>
        <time>2017-05-28T13:51:35Z</time>
      </trkpt>
      <trkpt lat="48.01816" lon="-4.61259">
        <ele>20.32</ele>
        <time>2017-05-28T13:51:52Z</time>
      </trkpt>
      <trkpt lat="48.0181" lon="-4.61267">
        <ele>19.36</ele>
        <time>2017-05-28T13:51:58Z</time>
      </trkpt>
      <trkpt lat="48.01804" lon="-4.61285">
        <ele>17.44</ele>
        <time>2017-05-28T13:52:10Z</time>
      </trkpt>
      <trkpt lat="48.01804" lon="-4.61295">
        <ele>17.44</ele>
        <time>2017-05-28T13:52:16Z</time>
      </trkpt>
      <trkpt lat="48.01802" lon="-4.61302">
        <ele>17.92</ele>
        <time>2017-05-28T13:52:20Z</time>
      </trkpt>
      <trkpt lat="48.01802" lon="-4.61305">
        <ele>18.4</ele>
        <time>2017-05-28T13:52:22Z</time>
      </trkpt>
      <trkpt lat="48.01801" lon="-4.61309">
        <ele>18.4</ele>
        <time>2017-05-28T13:52:25Z</time>
      </trkpt>
      <trkpt lat="48.01793" lon="-4.61316">
        <ele>18.4</ele>
        <time>2017-05-28T13:52:41Z</time>
      </trkpt>
      <trkpt lat="48.01793" lon="-4.61316">
        <ele>18.4</ele>
        <time>2017-05-28T13:52:44Z</time>
      </trkpt>
      <trkpt lat="48.01785" lon="-4.61326">
        <ele>18.88</ele>
        <time>2017-05-28T13:52:52Z</time>
      </trkpt>
      <trkpt lat="48.01781" lon="-4.61327">
        <ele>19.84</ele>
        <time>2017-05-28T13:52:55Z</time>
      </trkpt>
      <trkpt lat="48.01779" lon="-4.61325">
        <ele>19.84</ele>
        <time>2017-05-28T13:52:57Z</time>
      </trkpt>
      <trkpt lat="48.01775" lon="-4.61318">
        <ele>19.84</ele>
        <time>2017-05-28T13:53:01Z</time>
      </trkpt>
      <trkpt lat="48.01769" lon="-4.61316">
        <ele>19.36</ele>
        <time>2017-05-28T13:53:07Z</time>
      </trkpt>
      <trkpt lat="48.01767" lon="-4.61317">
        <ele>18.88</ele>
        <time>2017-05-28T13:53:09Z</time>
      </trkpt>
      <trkpt lat="48.0176" lon="-4.61334">
        <ele>18.88</ele>
        <time>2017-05-28T13:53:20Z</time>
      </trkpt>
      <trkpt lat="48.01757" lon="-4.61338">
        <ele>19.36</ele>
        <time>2017-05-28T13:53:24Z</time>
      </trkpt>
      <trkpt lat="48.01749" lon="-4.61348">
        <ele>20.32</ele>
        <time>2017-05-28T13:53:32Z</time>
      </trkpt>
      <trkpt lat="48.01738" lon="-4.61367">
        <ele>20.32</ele>
        <time>2017-05-28T13:53:46Z</time>
      </trkpt>
      <trkpt lat="48.01734" lon="-4.6138">
        <ele>20.32</ele>
        <time>2017-05-28T13:53:54Z</time>
      </trkpt>
      <trkpt lat="48.0173" lon="-4.61402">
        <ele>20.32</ele>
        <time>2017-05-28T13:54:06Z</time>
      </trkpt>
      <trkpt lat="48.01724" lon="-4.61418">
        <ele>20.81</ele>
        <time>2017-05-28T13:54:16Z</time>
      </trkpt>
      <trkpt lat="48.0172" lon="-4.61431">
        <ele>20.32</ele>
        <time>2017-05-28T13:54:24Z</time>
      </trkpt>
      <trkpt lat="48.01716" lon="-4.61462">
        <ele>21.29</ele>
        <time>2017-05-28T13:54:40Z</time>
      </trkpt>
      <trkpt lat="48.01714" lon="-4.61486">
        <ele>22.25</ele>
        <time>2017-05-28T13:54:52Z</time>
      </trkpt>
      <trkpt lat="48.01716" lon="-4.61498">
        <ele>21.29</ele>
        <time>2017-05-28T13:54:59Z</time>
      </trkpt>
      <trkpt lat="48.01718" lon="-4.61517">
        <ele>21.29</ele>
        <time>2017-05-28T13:55:09Z</time>
      </trkpt>
      <trkpt lat="48.01718" lon="-4.61546">
        <ele>21.29</ele>
        <time>2017-05-28T13:55:24Z</time>
      </trkpt>
      <trkpt lat="48.01719" lon="-4.61559">
        <ele>21.29</ele>
        <time>2017-05-28T13:55:30Z</time>
      </trkpt>
      <trkpt lat="48.01716" lon="-4.61571">
        <ele>20.32</ele>
        <time>2017-05-28T13:55:35Z</time>
      </trkpt>
      <trkpt lat="48.01713" lon="-4.61604">
        <ele>21.29</ele>
        <time>2017-05-28T13:55:51Z</time>
      </trkpt>
      <trkpt lat="48.01713" lon="-4.61628">
        <ele>21.77</ele>
        <time>2017-05-28T13:56:03Z</time>
      </trkpt>
      <trkpt lat="48.01714" lon="-4.61634">
        <ele>22.25</ele>
        <time>2017-05-28T13:56:07Z</time>
      </trkpt>
      <trkpt lat="48.01718" lon="-4.6166">
        <ele>21.77</ele>
        <time>2017-05-28T13:56:21Z</time>
      </trkpt>
      <trkpt lat="48.01719" lon="-4.61665">
        <ele>21.29</ele>
        <time>2017-05-28T13:56:24Z</time>
      </trkpt>
      <trkpt lat="48.0172" lon="-4.61675">
        <ele>21.29</ele>
        <time>2017-05-28T13:56:29Z</time>
      </trkpt>
      <trkpt lat="48.0172" lon="-4.61681">
        <ele>21.29</ele>
        <time>2017-05-28T13:56:32Z</time>
      </trkpt>
      <trkpt lat="48.01722" lon="-4.61686">
        <ele>21.29</ele>
        <time>2017-05-28T13:56:35Z</time>
      </trkpt>
      <trkpt lat="48.01725" lon="-4.61697">
        <ele>20.32</ele>
        <time>2017-05-28T13:56:40Z</time>
      </trkpt>
      <trkpt lat="48.01724" lon="-4.61702">
        <ele>19.84</ele>
        <time>2017-05-28T13:56:43Z</time>
      </trkpt>
      <trkpt lat="48.01726" lon="-4.6171">
        <ele>19.84</ele>
        <time>2017-05-28T13:56:48Z</time>
      </trkpt>
      <trkpt lat="48.01738" lon="-4.61735">
        <ele>21.77</ele>
        <time>2017-05-28T13:57:03Z</time>
      </trkpt>
      <trkpt lat="48.01746" lon="-4.61743">
        <ele>22.25</ele>
        <time>2017-05-28T13:57:09Z</time>
      </trkpt>
      <trkpt lat="48.01758" lon="-4.61757">
        <ele>21.77</ele>
        <time>2017-05-28T13:57:21Z</time>
      </trkpt>
      <trkpt lat="48.01768" lon="-4.61772">
        <ele>22.25</ele>
        <time>2017-05-28T13:57:32Z</time>
      </trkpt>
      <trkpt lat="48.01775" lon="-4.61783">
        <ele>22.73</ele>
        <time>2017-05-28T13:57:48Z</time>
      </trkpt>
      <trkpt lat="48.0178" lon="-4.61793">
        <ele>22.25</ele>
        <time>2017-05-28T13:58:01Z</time>
      </trkpt>
      <trkpt lat="48.01781" lon="-4.61795">
        <ele>22.25</ele>
        <time>2017-05-28T13:58:02Z</time>
      </trkpt>
      <trkpt lat="48.01783" lon="-4.61799">
        <ele>23.21</ele>
        <time>2017-05-28T13:58:09Z</time>
      </trkpt>
      <trkpt lat="48.01789" lon="-4.61807">
        <ele>24.65</ele>
        <time>2017-05-28T13:58:14Z</time>
      </trkpt>
      <trkpt lat="48.01795" lon="-4.6181">
        <ele>25.61</ele>
        <time>2017-05-28T13:58:19Z</time>
      </trkpt>
      <trkpt lat="48.018" lon="-4.61818">
        <ele>24.65</ele>
        <time>2017-05-28T13:58:25Z</time>
      </trkpt>
      <trkpt lat="48.01813" lon="-4.61836">
        <ele>23.21</ele>
        <time>2017-05-28T13:58:40Z</time>
      </trkpt>
      <trkpt lat="48.01821" lon="-4.61858">
        <ele>21.29</ele>
        <time>2017-05-28T13:58:54Z</time>
      </trkpt>
      <trkpt lat="48.01826" lon="-4.6187">
        <ele>21.29</ele>
        <time>2017-05-28T13:59:02Z</time>
      </trkpt>
      <trkpt lat="48.01828" lon="-4.61879">
        <ele>21.29</ele>
        <time>2017-05-28T13:59:08Z</time>
      </trkpt>
      <trkpt lat="48.01831" lon="-4.61886">
        <ele>20.81</ele>
        <time>2017-05-28T13:59:12Z</time>
      </trkpt>
      <trkpt lat="48.01834" lon="-4.61897">
        <ele>21.29</ele>
        <time>2017-05-28T13:59:18Z</time>
      </trkpt>
      <trkpt lat="48.01841" lon="-4.61908">
        <ele>19.84</ele>
        <time>2017-05-28T13:59:27Z</time>
      </trkpt>
      <trkpt lat="48.01843" lon="-4.61912">
        <ele>19.36</ele>
        <time>2017-05-28T13:59:30Z</time>
      </trkpt>
      <trkpt lat="48.01848" lon="-4.61929">
        <ele>15.04</ele>
        <time>2017-05-28T13:59:40Z</time>
      </trkpt>
      <trkpt lat="48.01851" lon="-4.6194">
        <ele>16.48</ele>
        <time>2017-05-28T13:59:47Z</time>
      </trkpt>
      <trkpt lat="48.01854" lon="-4.61944">
        <ele>16.48</ele>
        <time>2017-05-28T13:59:50Z</time>
      </trkpt>
      <trkpt lat="48.01858" lon="-4.61955">
        <ele>16.96</ele>
        <time>2017-05-28T13:59:55Z</time>
      </trkpt>
      <trkpt lat="48.01859" lon="-4.61961">
        <ele>16</ele>
        <time>2017-05-28T14:00:00Z</time>
      </trkpt>
      <trkpt lat="48.0186" lon="-4.61965">
        <ele>15.52</ele>
        <time>2017-05-28T14:00:02Z</time>
      </trkpt>
      <trkpt lat="48.01865" lon="-4.61979">
        <ele>16</ele>
        <time>2017-05-28T14:00:09Z</time>
      </trkpt>
      <trkpt lat="48.01866" lon="-4.61982">
        <ele>16</ele>
        <time>2017-05-28T14:00:11Z</time>
      </trkpt>
      <trkpt lat="48.01859" lon="-4.62002">
        <ele>15.04</ele>
        <time>2017-05-28T14:00:23Z</time>
      </trkpt>
      <trkpt lat="48.01855" lon="-4.62007">
        <ele>15.04</ele>
        <time>2017-05-28T14:00:27Z</time>
      </trkpt>
      <trkpt lat="48.01849" lon="-4.62019">
        <ele>14.08</ele>
        <time>2017-05-28T14:00:35Z</time>
      </trkpt>
      <trkpt lat="48.01849" lon="-4.62027">
        <ele>14.08</ele>
        <time>2017-05-28T14:00:39Z</time>
      </trkpt>
      <trkpt lat="48.01845" lon="-4.62046">
        <ele>14.08</ele>
        <time>2017-05-28T14:00:50Z</time>
      </trkpt>
      <trkpt lat="48.01839" lon="-4.62066">
        <ele>15.04</ele>
        <time>2017-05-28T14:01:02Z</time>
      </trkpt>
      <trkpt lat="48.01838" lon="-4.62068">
        <ele>14.56</ele>
        <time>2017-05-28T14:01:03Z</time>
      </trkpt>
      <trkpt lat="48.01837" lon="-4.62072">
        <ele>14.08</ele>
        <time>2017-05-28T14:01:06Z</time>
      </trkpt>
      <trkpt lat="48.01833" lon="-4.62095">
        <ele>14.56</ele>
        <time>2017-05-28T14:01:20Z</time>
      </trkpt>
      <trkpt lat="48.01832" lon="-4.621">
        <ele>15.52</ele>
        <time>2017-05-28T14:01:23Z</time>
      </trkpt>
      <trkpt lat="48.01834" lon="-4.62109">
        <ele>15.04</ele>
        <time>2017-05-28T14:01:28Z</time>
      </trkpt>
      <trkpt lat="48.01838" lon="-4.62116">
        <ele>15.52</ele>
        <time>2017-05-28T14:01:33Z</time>
      </trkpt>
      <trkpt lat="48.01841" lon="-4.62121">
        <ele>16</ele>
        <time>2017-05-28T14:01:37Z</time>
      </trkpt>
      <trkpt lat="48.01846" lon="-4.62132">
        <ele>15.52</ele>
        <time>2017-05-28T14:01:45Z</time>
      </trkpt>
      <trkpt lat="48.01857" lon="-4.62145">
        <ele>16</ele>
        <time>2017-05-28T14:01:55Z</time>
      </trkpt>
      <trkpt lat="48.01863" lon="-4.62149">
        <ele>15.52</ele>
        <time>2017-05-28T14:02:00Z</time>
      </trkpt>
      <trkpt lat="48.01872" lon="-4.6215">
        <ele>16</ele>
        <time>2017-05-28T14:02:08Z</time>
      </trkpt>
      <trkpt lat="48.01888" lon="-4.62161">
        <ele>15.04</ele>
        <time>2017-05-28T14:02:23Z</time>
      </trkpt>
      <trkpt lat="48.01895" lon="-4.62164">
        <ele>15.04</ele>
        <time>2017-05-28T14:02:29Z</time>
      </trkpt>
      <trkpt lat="48.01913" lon="-4.62158">
        <ele>13.6</ele>
        <time>2017-05-28T14:02:45Z</time>
      </trkpt>
      <trkpt lat="48.01915" lon="-4.62158">
        <ele>13.6</ele>
        <time>2017-05-28T14:02:47Z</time>
      </trkpt>
      <trkpt lat="48.0193" lon="-4.62158">
        <ele>12.63</ele>
        <time>2017-05-28T14:03:01Z</time>
      </trkpt>
      <trkpt lat="48.01937" lon="-4.62157">
        <ele>12.63</ele>
        <time>2017-05-28T14:03:07Z</time>
      </trkpt>
      <trkpt lat="48.0194" lon="-4.62159">
        <ele>12.63</ele>
        <time>2017-05-28T14:03:23Z</time>
      </trkpt>
      <trkpt lat="48.01945" lon="-4.62159">
        <ele>12.15</ele>
        <time>2017-05-28T14:03:28Z</time>
      </trkpt>
      <trkpt lat="48.01952" lon="-4.62176">
        <ele>11.67</ele>
        <time>2017-05-28T14:03:41Z</time>
      </trkpt>
      <trkpt lat="48.01957" lon="-4.62176">
        <ele>12.15</ele>
        <time>2017-05-28T14:03:46Z</time>
      </trkpt>
      <trkpt lat="48.01961" lon="-4.62175">
        <ele>12.15</ele>
        <time>2017-05-28T14:03:49Z</time>
      </trkpt>
      <trkpt lat="48.01968" lon="-4.62179">
        <ele>12.15</ele>
        <time>2017-05-28T14:03:55Z</time>
      </trkpt>
      <trkpt lat="48.01976" lon="-4.62181">
        <ele>13.12</ele>
        <time>2017-05-28T14:04:01Z</time>
      </trkpt>
      <trkpt lat="48.01984" lon="-4.62202">
        <ele>13.6</ele>
        <time>2017-05-28T14:04:14Z</time>
      </trkpt>
      <trkpt lat="48.0199" lon="-4.62208">
        <ele>12.63</ele>
        <time>2017-05-28T14:04:20Z</time>
      </trkpt>
      <trkpt lat="48.02006" lon="-4.62212">
        <ele>14.08</ele>
        <time>2017-05-28T14:04:33Z</time>
      </trkpt>
      <trkpt lat="48.02023" lon="-4.62217">
        <ele>16.48</ele>
        <time>2017-05-28T14:04:47Z</time>
      </trkpt>
      <trkpt lat="48.02026" lon="-4.62219">
        <ele>16.48</ele>
        <time>2017-05-28T14:04:49Z</time>
      </trkpt>
      <trkpt lat="48.02035" lon="-4.62221">
        <ele>17.92</ele>
        <time>2017-05-28T14:04:57Z</time>
      </trkpt>
      <trkpt lat="48.02039" lon="-4.62221">
        <ele>17.92</ele>
        <time>2017-05-28T14:05:00Z</time>
      </trkpt>
      <trkpt lat="48.02045" lon="-4.62224">
        <ele>17.92</ele>
        <time>2017-05-28T14:05:04Z</time>
      </trkpt>
      <trkpt lat="48.02052" lon="-4.6223">
        <ele>16.48</ele>
        <time>2017-05-28T14:05:11Z</time>
      </trkpt>
      <trkpt lat="48.02058" lon="-4.62235">
        <ele>16</ele>
        <time>2017-05-28T14:05:17Z</time>
      </trkpt>
      <trkpt lat="48.02069" lon="-4.62242">
        <ele>14.08</ele>
        <time>2017-05-28T14:05:28Z</time>
      </trkpt>
      <trkpt lat="48.02076" lon="-4.62254">
        <ele>11.67</ele>
        <time>2017-05-28T14:05:45Z</time>
      </trkpt>
      <trkpt lat="48.02079" lon="-4.62261">
        <ele>9.27</ele>
        <time>2017-05-28T14:05:53Z</time>
      </trkpt>
      <trkpt lat="48.02084" lon="-4.6227">
        <ele>9.27</ele>
        <time>2017-05-28T14:06:07Z</time>
      </trkpt>
      <trkpt lat="48.02086" lon="-4.62275">
        <ele>10.71</ele>
        <time>2017-05-28T14:06:15Z</time>
      </trkpt>
      <trkpt lat="48.02089" lon="-4.62281">
        <ele>11.19</ele>
        <time>2017-05-28T14:06:21Z</time>
      </trkpt>
      <trkpt lat="48.021" lon="-4.62294">
        <ele>13.6</ele>
        <time>2017-05-28T14:06:34Z</time>
      </trkpt>
      <trkpt lat="48.021" lon="-4.62296">
        <ele>13.6</ele>
        <time>2017-05-28T14:06:35Z</time>
      </trkpt>
      <trkpt lat="48.02105" lon="-4.62301">
        <ele>15.04</ele>
        <time>2017-05-28T14:06:39Z</time>
      </trkpt>
      <trkpt lat="48.02112" lon="-4.62314">
        <ele>16.48</ele>
        <time>2017-05-28T14:06:49Z</time>
      </trkpt>
      <trkpt lat="48.02114" lon="-4.6232">
        <ele>16.48</ele>
        <time>2017-05-28T14:06:53Z</time>
      </trkpt>
      <trkpt lat="48.02115" lon="-4.62329">
        <ele>16</ele>
        <time>2017-05-28T14:06:57Z</time>
      </trkpt>
      <trkpt lat="48.02117" lon="-4.62343">
        <ele>16.96</ele>
        <time>2017-05-28T14:07:05Z</time>
      </trkpt>
      <trkpt lat="48.02121" lon="-4.62353">
        <ele>17.44</ele>
        <time>2017-05-28T14:07:11Z</time>
      </trkpt>
      <trkpt lat="48.02122" lon="-4.62356">
        <ele>17.92</ele>
        <time>2017-05-28T14:07:13Z</time>
      </trkpt>
      <trkpt lat="48.02128" lon="-4.62364">
        <ele>17.92</ele>
        <time>2017-05-28T14:07:19Z</time>
      </trkpt>
      <trkpt lat="48.02137" lon="-4.62377">
        <ele>19.84</ele>
        <time>2017-05-28T14:07:32Z</time>
      </trkpt>
      <trkpt lat="48.02141" lon="-4.6239">
        <ele>20.32</ele>
        <time>2017-05-28T14:07:44Z</time>
      </trkpt>
      <trkpt lat="48.02144" lon="-4.62393">
        <ele>20.32</ele>
        <time>2017-05-28T14:08:02Z</time>
      </trkpt>
      <trkpt lat="48.02145" lon="-4.62394">
        <ele>20.81</ele>
        <time>2017-05-28T14:08:18Z</time>
      </trkpt>
      <trkpt lat="48.02145" lon="-4.62393">
        <ele>20.32</ele>
        <time>2017-05-28T14:08:43Z</time>
      </trkpt>
      <trkpt lat="48.02145" lon="-4.62394">
        <ele>20.81</ele>
        <time>2017-05-28T14:08:59Z</time>
      </trkpt>
      <trkpt lat="48.0215" lon="-4.62408">
        <ele>20.81</ele>
        <time>2017-05-28T14:09:08Z</time>
      </trkpt>
      <trkpt lat="48.02161" lon="-4.62426">
        <ele>20.81</ele>
        <time>2017-05-28T14:09:23Z</time>
      </trkpt>
      <trkpt lat="48.02162" lon="-4.62428">
        <ele>21.29</ele>
        <time>2017-05-28T14:09:24Z</time>
      </trkpt>
      <trkpt lat="48.02171" lon="-4.62454">
        <ele>20.32</ele>
        <time>2017-05-28T14:09:37Z</time>
      </trkpt>
      <trkpt lat="48.02172" lon="-4.6246">
        <ele>20.81</ele>
        <time>2017-05-28T14:09:41Z</time>
      </trkpt>
      <trkpt lat="48.02174" lon="-4.62466">
        <ele>21.29</ele>
        <time>2017-05-28T14:09:45Z</time>
      </trkpt>
      <trkpt lat="48.02189" lon="-4.6249">
        <ele>19.36</ele>
        <time>2017-05-28T14:10:00Z</time>
      </trkpt>
      <trkpt lat="48.02191" lon="-4.62493">
        <ele>19.84</ele>
        <time>2017-05-28T14:10:02Z</time>
      </trkpt>
      <trkpt lat="48.02194" lon="-4.62501">
        <ele>20.81</ele>
        <time>2017-05-28T14:10:07Z</time>
      </trkpt>
      <trkpt lat="48.02197" lon="-4.62504">
        <ele>21.77</ele>
        <time>2017-05-28T14:10:10Z</time>
      </trkpt>
      <trkpt lat="48.02203" lon="-4.62511">
        <ele>22.25</ele>
        <time>2017-05-28T14:10:15Z</time>
      </trkpt>
      <trkpt lat="48.02213" lon="-4.62526">
        <ele>22.73</ele>
        <time>2017-05-28T14:10:30Z</time>
      </trkpt>
      <trkpt lat="48.02216" lon="-4.62532">
        <ele>22.25</ele>
        <time>2017-05-28T14:10:33Z</time>
      </trkpt>
      <trkpt lat="48.02224" lon="-4.62556">
        <ele>20.81</ele>
        <time>2017-05-28T14:10:47Z</time>
      </trkpt>
      <trkpt lat="48.02228" lon="-4.62568">
        <ele>21.77</ele>
        <time>2017-05-28T14:10:54Z</time>
      </trkpt>
      <trkpt lat="48.02232" lon="-4.62577">
        <ele>21.77</ele>
        <time>2017-05-28T14:10:59Z</time>
      </trkpt>
      <trkpt lat="48.02234" lon="-4.62581">
        <ele>21.77</ele>
        <time>2017-05-28T14:11:01Z</time>
      </trkpt>
      <trkpt lat="48.02239" lon="-4.62599">
        <ele>22.73</ele>
        <time>2017-05-28T14:11:11Z</time>
      </trkpt>
      <trkpt lat="48.02246" lon="-4.62626">
        <ele>22.73</ele>
        <time>2017-05-28T14:11:23Z</time>
      </trkpt>
      <trkpt lat="48.02257" lon="-4.62641">
        <ele>22.73</ele>
        <time>2017-05-28T14:11:35Z</time>
      </trkpt>
      <trkpt lat="48.02264" lon="-4.62649">
        <ele>22.25</ele>
        <time>2017-05-28T14:11:40Z</time>
      </trkpt>
      <trkpt lat="48.0227" lon="-4.62663">
        <ele>22.25</ele>
        <time>2017-05-28T14:11:50Z</time>
      </trkpt>
      <trkpt lat="48.02271" lon="-4.62702">
        <ele>22.73</ele>
        <time>2017-05-28T14:12:08Z</time>
      </trkpt>
      <trkpt lat="48.02271" lon="-4.62706">
        <ele>22.73</ele>
        <time>2017-05-28T14:12:10Z</time>
      </trkpt>
      <trkpt lat="48.0227" lon="-4.62711">
        <ele>23.69</ele>
        <time>2017-05-28T14:12:13Z</time>
      </trkpt>
      <trkpt lat="48.02268" lon="-4.62733">
        <ele>20.81</ele>
        <time>2017-05-28T14:12:27Z</time>
      </trkpt>
      <trkpt lat="48.02288" lon="-4.62764">
        <ele>20.32</ele>
        <time>2017-05-28T14:12:42Z</time>
      </trkpt>
      <trkpt lat="48.02294" lon="-4.62774">
        <ele>16.48</ele>
        <time>2017-05-28T14:12:57Z</time>
      </trkpt>
      <trkpt lat="48.02296" lon="-4.62776">
        <ele>16.48</ele>
        <time>2017-05-28T14:12:59Z</time>
      </trkpt>
      <trkpt lat="48.02311" lon="-4.6278">
        <ele>14.08</ele>
        <time>2017-05-28T14:13:07Z</time>
      </trkpt>
      <trkpt lat="48.02317" lon="-4.62779">
        <ele>13.6</ele>
        <time>2017-05-28T14:13:11Z</time>
      </trkpt>
      <trkpt lat="48.02337" lon="-4.62763">
        <ele>11.19</ele>
        <time>2017-05-28T14:13:27Z</time>
      </trkpt>
      <trkpt lat="48.02351" lon="-4.62754">
        <ele>11.19</ele>
        <time>2017-05-28T14:13:38Z</time>
      </trkpt>
      <trkpt lat="48.02362" lon="-4.62751">
        <ele>11.67</ele>
        <time>2017-05-28T14:13:48Z</time>
      </trkpt>
      <trkpt lat="48.02368" lon="-4.6275">
        <ele>11.67</ele>
        <time>2017-05-28T14:13:54Z</time>
      </trkpt>
      <trkpt lat="48.02382" lon="-4.62746">
        <ele>12.15</ele>
        <time>2017-05-28T14:14:06Z</time>
      </trkpt>
      <trkpt lat="48.02395" lon="-4.62739">
        <ele>12.63</ele>
        <time>2017-05-28T14:14:18Z</time>
      </trkpt>
      <trkpt lat="48.02404" lon="-4.6273">
        <ele>14.08</ele>
        <time>2017-05-28T14:14:28Z</time>
      </trkpt>
      <trkpt lat="48.02418" lon="-4.62704">
        <ele>15.04</ele>
        <time>2017-05-28T14:14:43Z</time>
      </trkpt>
      <trkpt lat="48.02421" lon="-4.62698">
        <ele>14.56</ele>
        <time>2017-05-28T14:14:47Z</time>
      </trkpt>
      <trkpt lat="48.02431" lon="-4.62679">
        <ele>14.08</ele>
        <time>2017-05-28T14:15:01Z</time>
      </trkpt>
      <trkpt lat="48.02447" lon="-4.62641">
        <ele>14.56</ele>
        <time>2017-05-28T14:15:19Z</time>
      </trkpt>
      <trkpt lat="48.02461" lon="-4.62608">
        <ele>13.6</ele>
        <time>2017-05-28T14:15:38Z</time>
      </trkpt>
      <trkpt lat="48.0247" lon="-4.62588">
        <ele>15.04</ele>
        <time>2017-05-28T14:15:52Z</time>
      </trkpt>
      <trkpt lat="48.02473" lon="-4.6258">
        <ele>15.04</ele>
        <time>2017-05-28T14:15:57Z</time>
      </trkpt>
      <trkpt lat="48.02478" lon="-4.62541">
        <ele>14.56</ele>
        <time>2017-05-28T14:16:13Z</time>
      </trkpt>
      <trkpt lat="48.02479" lon="-4.62541">
        <ele>14.56</ele>
        <time>2017-05-28T14:16:16Z</time>
      </trkpt>
      <trkpt lat="48.02476" lon="-4.62543">
        <ele>15.52</ele>
        <time>2017-05-28T14:16:32Z</time>
      </trkpt>
      <trkpt lat="48.02477" lon="-4.62543">
        <ele>16</ele>
        <time>2017-05-28T14:16:51Z</time>
      </trkpt>
      <trkpt lat="48.02476" lon="-4.6253">
        <ele>14.56</ele>
        <time>2017-05-28T14:16:57Z</time>
      </trkpt>
      <trkpt lat="48.0248" lon="-4.62502">
        <ele>15.52</ele>
        <time>2017-05-28T14:17:13Z</time>
      </trkpt>
      <trkpt lat="48.02481" lon="-4.62469">
        <ele>17.44</ele>
        <time>2017-05-28T14:17:27Z</time>
      </trkpt>
      <trkpt lat="48.02481" lon="-4.62459">
        <ele>18.4</ele>
        <time>2017-05-28T14:17:35Z</time>
      </trkpt>
      <trkpt lat="48.02484" lon="-4.62452">
        <ele>19.36</ele>
        <time>2017-05-28T14:17:40Z</time>
      </trkpt>
      <trkpt lat="48.02487" lon="-4.62429">
        <ele>21.29</ele>
        <time>2017-05-28T14:17:55Z</time>
      </trkpt>
      <trkpt lat="48.02488" lon="-4.62428">
        <ele>20.81</ele>
        <time>2017-05-28T14:18:18Z</time>
      </trkpt>
      <trkpt lat="48.02492" lon="-4.6238">
        <ele>19.36</ele>
        <time>2017-05-28T14:18:39Z</time>
      </trkpt>
      <trkpt lat="48.02494" lon="-4.62364">
        <ele>17.92</ele>
        <time>2017-05-28T14:18:47Z</time>
      </trkpt>
      <trkpt lat="48.02495" lon="-4.6236">
        <ele>17.92</ele>
        <time>2017-05-28T14:18:50Z</time>
      </trkpt>
      <trkpt lat="48.02497" lon="-4.62331">
        <ele>17.44</ele>
        <time>2017-05-28T14:19:00Z</time>
      </trkpt>
      <trkpt lat="48.025" lon="-4.62286">
        <ele>19.36</ele>
        <time>2017-05-28T14:19:16Z</time>
      </trkpt>
      <trkpt lat="48.02502" lon="-4.62278">
        <ele>20.81</ele>
        <time>2017-05-28T14:19:22Z</time>
      </trkpt>
      <trkpt lat="48.02507" lon="-4.62268">
        <ele>22.73</ele>
        <time>2017-05-28T14:19:28Z</time>
      </trkpt>
      <trkpt lat="48.02519" lon="-4.62255">
        <ele>23.21</ele>
        <time>2017-05-28T14:19:46Z</time>
      </trkpt>
      <trkpt lat="48.02522" lon="-4.62252">
        <ele>22.73</ele>
        <time>2017-05-28T14:19:48Z</time>
      </trkpt>
      <trkpt lat="48.02526" lon="-4.6224">
        <ele>22.73</ele>
        <time>2017-05-28T14:19:52Z</time>
      </trkpt>
      <trkpt lat="48.0252" lon="-4.6221">
        <ele>19.84</ele>
        <time>2017-05-28T14:20:06Z</time>
      </trkpt>
      <trkpt lat="48.02519" lon="-4.62191">
        <ele>19.84</ele>
        <time>2017-05-28T14:20:19Z</time>
      </trkpt>
      <trkpt lat="48.02519" lon="-4.62185">
        <ele>19.36</ele>
        <time>2017-05-28T14:20:22Z</time>
      </trkpt>
      <trkpt lat="48.02511" lon="-4.62141">
        <ele>19.84</ele>
        <time>2017-05-28T14:20:37Z</time>
      </trkpt>
      <trkpt lat="48.02509" lon="-4.62123">
        <ele>21.29</ele>
        <time>2017-05-28T14:20:50Z</time>
      </trkpt>
      <trkpt lat="48.02497" lon="-4.62102">
        <ele>20.32</ele>
        <time>2017-05-28T14:21:04Z</time>
      </trkpt>
      <trkpt lat="48.02495" lon="-4.62094">
        <ele>19.84</ele>
        <time>2017-05-28T14:21:14Z</time>
      </trkpt>
      <trkpt lat="48.02496" lon="-4.62081">
        <ele>19.36</ele>
        <time>2017-05-28T14:21:22Z</time>
      </trkpt>
      <trkpt lat="48.02496" lon="-4.62075">
        <ele>18.4</ele>
        <time>2017-05-28T14:21:28Z</time>
      </trkpt>
      <trkpt lat="48.02497" lon="-4.6206">
        <ele>19.84</ele>
        <time>2017-05-28T14:21:39Z</time>
      </trkpt>
      <trkpt lat="48.02494" lon="-4.62034">
        <ele>20.81</ele>
        <time>2017-05-28T14:21:49Z</time>
      </trkpt>
      <trkpt lat="48.02488" lon="-4.6201">
        <ele>24.65</ele>
        <time>2017-05-28T14:22:07Z</time>
      </trkpt>
      <trkpt lat="48.02477" lon="-4.61976">
        <ele>22.73</ele>
        <time>2017-05-28T14:22:20Z</time>
      </trkpt>
      <trkpt lat="48.02477" lon="-4.61976">
        <ele>22.73</ele>
        <time>2017-05-28T14:22:21Z</time>
      </trkpt>
      <trkpt lat="48.02476" lon="-4.61973">
        <ele>23.21</ele>
        <time>2017-05-28T14:22:27Z</time>
      </trkpt>
      <trkpt lat="48.02474" lon="-4.61961">
        <ele>23.69</ele>
        <time>2017-05-28T14:22:38Z</time>
      </trkpt>
      <trkpt lat="48.02474" lon="-4.6196">
        <ele>23.69</ele>
        <time>2017-05-28T14:22:46Z</time>
      </trkpt>
      <trkpt lat="48.02475" lon="-4.61965">
        <ele>23.21</ele>
        <time>2017-05-28T14:22:56Z</time>
      </trkpt>
      <trkpt lat="48.02468" lon="-4.61933">
        <ele>22.25</ele>
        <time>2017-05-28T14:23:11Z</time>
      </trkpt>
      <trkpt lat="48.02461" lon="-4.61907">
        <ele>20.81</ele>
        <time>2017-05-28T14:23:26Z</time>
      </trkpt>
      <trkpt lat="48.02459" lon="-4.61881">
        <ele>23.69</ele>
        <time>2017-05-28T14:23:41Z</time>
      </trkpt>
      <trkpt lat="48.02485" lon="-4.6187">
        <ele>24.65</ele>
        <time>2017-05-28T14:23:55Z</time>
      </trkpt>
      <trkpt lat="48.02488" lon="-4.61877">
        <ele>25.13</ele>
        <time>2017-05-28T14:24:06Z</time>
      </trkpt>
      <trkpt lat="48.02489" lon="-4.61876">
        <ele>24.17</ele>
        <time>2017-05-28T14:24:29Z</time>
      </trkpt>
      <trkpt lat="48.02488" lon="-4.61875">
        <ele>25.13</ele>
        <time>2017-05-28T14:24:48Z</time>
      </trkpt>
      <trkpt lat="48.02489" lon="-4.61876">
        <ele>26.09</ele>
        <time>2017-05-28T14:25:02Z</time>
      </trkpt>
      <trkpt lat="48.0249" lon="-4.61878">
        <ele>25.13</ele>
        <time>2017-05-28T14:25:08Z</time>
      </trkpt>
      <trkpt lat="48.02488" lon="-4.61876">
        <ele>25.61</ele>
        <time>2017-05-28T14:25:21Z</time>
      </trkpt>
      <trkpt lat="48.02488" lon="-4.61877">
        <ele>24.17</ele>
        <time>2017-05-28T14:25:38Z</time>
      </trkpt>
      <trkpt lat="48.02489" lon="-4.61875">
        <ele>23.69</ele>
        <time>2017-05-28T14:25:52Z</time>
      </trkpt>
      <trkpt lat="48.02488" lon="-4.61876">
        <ele>23.21</ele>
        <time>2017-05-28T14:26:10Z</time>
      </trkpt>
      <trkpt lat="48.02488" lon="-4.61876">
        <ele>24.17</ele>
        <time>2017-05-28T14:26:29Z</time>
      </trkpt>
      <trkpt lat="48.02488" lon="-4.61874">
        <ele>24.17</ele>
        <time>2017-05-28T14:27:02Z</time>
      </trkpt>
      <trkpt lat="48.02488" lon="-4.61875">
        <ele>24.65</ele>
        <time>2017-05-28T14:27:29Z</time>
      </trkpt>
      <trkpt lat="48.02487" lon="-4.61874">
        <ele>24.65</ele>
        <time>2017-05-28T14:27:51Z</time>
      </trkpt>
      <trkpt lat="48.02487" lon="-4.61873">
        <ele>24.65</ele>
        <time>2017-05-28T14:28:34Z</time>
      </trkpt>
      <trkpt lat="48.02487" lon="-4.61873">
        <ele>25.13</ele>
        <time>2017-05-28T14:29:15Z</time>
      </trkpt>
      <trkpt lat="48.02487" lon="-4.61874">
        <ele>25.13</ele>
        <time>2017-05-28T14:29:55Z</time>
      </trkpt>
      <trkpt lat="48.02487" lon="-4.61873">
        <ele>24.17</ele>
        <time>2017-05-28T14:30:15Z</time>
      </trkpt>
      <trkpt lat="48.02487" lon="-4.61872">
        <ele>24.17</ele>
        <time>2017-05-28T14:30:57Z</time>
      </trkpt>
      <trkpt lat="48.02487" lon="-4.61872">
        <ele>24.17</ele>
        <time>2017-05-28T14:31:38Z</time>
      </trkpt>
      <trkpt lat="48.02487" lon="-4.61872">
        <ele>24.17</ele>
        <time>2017-05-28T14:32:20Z</time>
      </trkpt>
      <trkpt lat="48.02489" lon="-4.61873">
        <ele>24.65</ele>
        <time>2017-05-28T14:32:46Z</time>
      </trkpt>
      <trkpt lat="48.02489" lon="-4.61874">
        <ele>24.17</ele>
        <time>2017-05-28T14:33:09Z</time>
      </trkpt>
      <trkpt lat="48.02489" lon="-4.61874">
        <ele>24.65</ele>
        <time>2017-05-28T14:33:40Z</time>
      </trkpt>
      <trkpt lat="48.02489" lon="-4.61875">
        <ele>24.17</ele>
        <time>2017-05-28T14:34:02Z</time>
      </trkpt>
      <trkpt lat="48.02489" lon="-4.61875">
        <ele>24.65</ele>
        <time>2017-05-28T14:34:27Z</time>
      </trkpt>
      <trkpt lat="48.02488" lon="-4.61874">
        <ele>24.17</ele>
        <time>2017-05-28T14:34:47Z</time>
      </trkpt>
      <trkpt lat="48.02488" lon="-4.61873">
        <ele>24.17</ele>
        <time>2017-05-28T14:35:15Z</time>
      </trkpt>
      <trkpt lat="48.02488" lon="-4.61872">
        <ele>23.69</ele>
        <time>2017-05-28T14:35:56Z</time>
      </trkpt>
      <trkpt lat="48.02488" lon="-4.61875">
        <ele>23.69</ele>
        <time>2017-05-28T14:36:10Z</time>
      </trkpt>
      <trkpt lat="48.02489" lon="-4.61873">
        <ele>23.21</ele>
        <time>2017-05-28T14:36:26Z</time>
      </trkpt>
      <trkpt lat="48.02489" lon="-4.61873">
        <ele>24.17</ele>
        <time>2017-05-28T14:36:55Z</time>
      </trkpt>
      <trkpt lat="48.0249" lon="-4.6187">
        <ele>24.65</ele>
        <time>2017-05-28T14:37:17Z</time>
      </trkpt>
      <trkpt lat="48.02474" lon="-4.61876">
        <ele>24.65</ele>
        <time>2017-05-28T14:37:34Z</time>
      </trkpt>
      <trkpt lat="48.02459" lon="-4.61879">
        <ele>26.09</ele>
        <time>2017-05-28T14:37:52Z</time>
      </trkpt>
      <trkpt lat="48.02458" lon="-4.61879">
        <ele>26.57</ele>
        <time>2017-05-28T14:37:54Z</time>
      </trkpt>
      <trkpt lat="48.02452" lon="-4.61864">
        <ele>27.05</ele>
        <time>2017-05-28T14:38:04Z</time>
      </trkpt>
      <trkpt lat="48.02446" lon="-4.6184">
        <ele>26.57</ele>
        <time>2017-05-28T14:38:19Z</time>
      </trkpt>
      <trkpt lat="48.02444" lon="-4.61837">
        <ele>26.57</ele>
        <time>2017-05-28T14:38:22Z</time>
      </trkpt>
      <trkpt lat="48.02437" lon="-4.61816">
        <ele>27.05</ele>
        <time>2017-05-28T14:38:36Z</time>
      </trkpt>
      <trkpt lat="48.02431" lon="-4.61795">
        <ele>26.57</ele>
        <time>2017-05-28T14:38:49Z</time>
      </trkpt>
      <trkpt lat="48.0243" lon="-4.61792">
        <ele>26.57</ele>
        <time>2017-05-28T14:38:51Z</time>
      </trkpt>
      <trkpt lat="48.02429" lon="-4.61787">
        <ele>27.05</ele>
        <time>2017-05-28T14:38:54Z</time>
      </trkpt>
      <trkpt lat="48.02424" lon="-4.61772">
        <ele>28.02</ele>
        <time>2017-05-28T14:39:06Z</time>
      </trkpt>
      <trkpt lat="48.02417" lon="-4.61745">
        <ele>28.02</ele>
        <time>2017-05-28T14:39:20Z</time>
      </trkpt>
      <trkpt lat="48.02415" lon="-4.61711">
        <ele>28.5</ele>
        <time>2017-05-28T14:39:36Z</time>
      </trkpt>
      <trkpt lat="48.02416" lon="-4.61708">
        <ele>28.98</ele>
        <time>2017-05-28T14:39:39Z</time>
      </trkpt>
      <trkpt lat="48.02424" lon="-4.617">
        <ele>29.94</ele>
        <time>2017-05-28T14:39:45Z</time>
      </trkpt>
      <trkpt lat="48.02438" lon="-4.61691">
        <ele>32.34</ele>
        <time>2017-05-28T14:40:01Z</time>
      </trkpt>
      <trkpt lat="48.02446" lon="-4.6168">
        <ele>32.34</ele>
        <time>2017-05-28T14:40:12Z</time>
      </trkpt>
      <trkpt lat="48.02465" lon="-4.61664">
        <ele>32.34</ele>
        <time>2017-05-28T14:40:28Z</time>
      </trkpt>
      <trkpt lat="48.0247" lon="-4.61663">
        <ele>32.34</ele>
        <time>2017-05-28T14:40:32Z</time>
      </trkpt>
      <trkpt lat="48.02486" lon="-4.61656">
        <ele>33.3</ele>
        <time>2017-05-28T14:40:44Z</time>
      </trkpt>
      <trkpt lat="48.02504" lon="-4.61648">
        <ele>33.3</ele>
        <time>2017-05-28T14:40:58Z</time>
      </trkpt>
      <trkpt lat="48.02524" lon="-4.61643">
        <ele>35.23</ele>
        <time>2017-05-28T14:41:16Z</time>
      </trkpt>
      <trkpt lat="48.02532" lon="-4.61639">
        <ele>36.19</ele>
        <time>2017-05-28T14:41:22Z</time>
      </trkpt>
      <trkpt lat="48.02556" lon="-4.61641">
        <ele>39.07</ele>
        <time>2017-05-28T14:41:40Z</time>
      </trkpt>
      <trkpt lat="48.02568" lon="-4.6164">
        <ele>39.07</ele>
        <time>2017-05-28T14:41:49Z</time>
      </trkpt>
      <trkpt lat="48.02573" lon="-4.61638">
        <ele>39.07</ele>
        <time>2017-05-28T14:41:52Z</time>
      </trkpt>
      <trkpt lat="48.02571" lon="-4.61638">
        <ele>37.63</ele>
        <time>2017-05-28T14:41:54Z</time>
      </trkpt>
      <trkpt lat="48.02571" lon="-4.61633">
        <ele>34.26</ele>
        <time>2017-05-28T14:42:09Z</time>
      </trkpt>
      <trkpt lat="48.02571" lon="-4.61636">
        <ele>34.26</ele>
        <time>2017-05-28T14:42:11Z</time>
      </trkpt>
      <trkpt lat="48.02577" lon="-4.61641">
        <ele>33.78</ele>
        <time>2017-05-28T14:42:15Z</time>
      </trkpt>
      <trkpt lat="48.02588" lon="-4.61638">
        <ele>33.3</ele>
        <time>2017-05-28T14:42:22Z</time>
      </trkpt>
      <trkpt lat="48.02611" lon="-4.61628">
        <ele>32.34</ele>
        <time>2017-05-28T14:42:39Z</time>
      </trkpt>
      <trkpt lat="48.02631" lon="-4.61619">
        <ele>36.67</ele>
        <time>2017-05-28T14:42:57Z</time>
      </trkpt>
      <trkpt lat="48.0265" lon="-4.61609">
        <ele>37.15</ele>
        <time>2017-05-28T14:43:11Z</time>
      </trkpt>
      <trkpt lat="48.02652" lon="-4.61609">
        <ele>37.15</ele>
        <time>2017-05-28T14:43:12Z</time>
      </trkpt>
      <trkpt lat="48.02671" lon="-4.616">
        <ele>39.55</ele>
        <time>2017-05-28T14:43:26Z</time>
      </trkpt>
      <trkpt lat="48.02678" lon="-4.61597">
        <ele>39.07</ele>
        <time>2017-05-28T14:43:34Z</time>
      </trkpt>
      <trkpt lat="48.02684" lon="-4.61594">
        <ele>38.59</ele>
        <time>2017-05-28T14:43:38Z</time>
      </trkpt>
      <trkpt lat="48.02701" lon="-4.61586">
        <ele>37.63</ele>
        <time>2017-05-28T14:43:52Z</time>
      </trkpt>
      <trkpt lat="48.02706" lon="-4.61552">
        <ele>40.99</ele>
        <time>2017-05-28T14:44:07Z</time>
      </trkpt>
      <trkpt lat="48.02709" lon="-4.61542">
        <ele>42.92</ele>
        <time>2017-05-28T14:44:13Z</time>
      </trkpt>
      <trkpt lat="48.02709" lon="-4.61532">
        <ele>44.36</ele>
        <time>2017-05-28T14:44:18Z</time>
      </trkpt>
      <trkpt lat="48.0271" lon="-4.61522">
        <ele>45.32</ele>
        <time>2017-05-28T14:44:22Z</time>
      </trkpt>
      <trkpt lat="48.02712" lon="-4.61506">
        <ele>45.8</ele>
        <time>2017-05-28T14:44:32Z</time>
      </trkpt>
      <trkpt lat="48.02712" lon="-4.61486">
        <ele>45.32</ele>
        <time>2017-05-28T14:44:41Z</time>
      </trkpt>
      <trkpt lat="48.02713" lon="-4.61457">
        <ele>43.4</ele>
        <time>2017-05-28T14:44:56Z</time>
      </trkpt>
      <trkpt lat="48.02713" lon="-4.61432">
        <ele>43.4</ele>
        <time>2017-05-28T14:45:07Z</time>
      </trkpt>
      <trkpt lat="48.02714" lon="-4.61425">
        <ele>43.4</ele>
        <time>2017-05-28T14:45:10Z</time>
      </trkpt>
      <trkpt lat="48.02716" lon="-4.61409">
        <ele>43.4</ele>
        <time>2017-05-28T14:45:20Z</time>
      </trkpt>
      <trkpt lat="48.02716" lon="-4.61389">
        <ele>45.32</ele>
        <time>2017-05-28T14:45:32Z</time>
      </trkpt>
      <trkpt lat="48.02715" lon="-4.61355">
        <ele>44.36</ele>
        <time>2017-05-28T14:45:48Z</time>
      </trkpt>
      <trkpt lat="48.02716" lon="-4.61346">
        <ele>45.32</ele>
        <time>2017-05-28T14:45:55Z</time>
      </trkpt>
      <trkpt lat="48.02714" lon="-4.61328">
        <ele>44.84</ele>
        <time>2017-05-28T14:46:03Z</time>
      </trkpt>
      <trkpt lat="48.02713" lon="-4.61297">
        <ele>46.28</ele>
        <time>2017-05-28T14:46:17Z</time>
      </trkpt>
      <trkpt lat="48.02713" lon="-4.61267">
        <ele>44.84</ele>
        <time>2017-05-28T14:46:33Z</time>
      </trkpt>
      <trkpt lat="48.02709" lon="-4.61246">
        <ele>43.88</ele>
        <time>2017-05-28T14:46:47Z</time>
      </trkpt>
      <trkpt lat="48.02699" lon="-4.61223">
        <ele>45.32</ele>
        <time>2017-05-28T14:47:00Z</time>
      </trkpt>
      <trkpt lat="48.02689" lon="-4.61201">
        <ele>41.95</ele>
        <time>2017-05-28T14:47:16Z</time>
      </trkpt>
      <trkpt lat="48.02676" lon="-4.61179">
        <ele>43.4</ele>
        <time>2017-05-28T14:47:31Z</time>
      </trkpt>
      <trkpt lat="48.02661" lon="-4.61158">
        <ele>45.8</ele>
        <time>2017-05-28T14:47:47Z</time>
      </trkpt>
      <trkpt lat="48.02647" lon="-4.6115">
        <ele>44.84</ele>
        <time>2017-05-28T14:47:55Z</time>
      </trkpt>
      <trkpt lat="48.02626" lon="-4.61143">
        <ele>45.32</ele>
        <time>2017-05-28T14:48:10Z</time>
      </trkpt>
      <trkpt lat="48.02615" lon="-4.6114">
        <ele>46.28</ele>
        <time>2017-05-28T14:48:17Z</time>
      </trkpt>
      <trkpt lat="48.02601" lon="-4.61136">
        <ele>49.65</ele>
        <time>2017-05-28T14:48:31Z</time>
      </trkpt>
      <trkpt lat="48.02593" lon="-4.61132">
        <ele>48.2</ele>
        <time>2017-05-28T14:48:36Z</time>
      </trkpt>
      <trkpt lat="48.02587" lon="-4.61125">
        <ele>47.72</ele>
        <time>2017-05-28T14:48:43Z</time>
      </trkpt>
      <trkpt lat="48.02577" lon="-4.61095">
        <ele>48.2</ele>
        <time>2017-05-28T14:48:59Z</time>
      </trkpt>
      <trkpt lat="48.02576" lon="-4.61089">
        <ele>47.72</ele>
        <time>2017-05-28T14:49:02Z</time>
      </trkpt>
      <trkpt lat="48.02574" lon="-4.61077">
        <ele>47.72</ele>
        <time>2017-05-28T14:49:08Z</time>
      </trkpt>
      <trkpt lat="48.0257" lon="-4.61067">
        <ele>48.68</ele>
        <time>2017-05-28T14:49:13Z</time>
      </trkpt>
      <trkpt lat="48.02562" lon="-4.61061">
        <ele>49.16</ele>
        <time>2017-05-28T14:49:19Z</time>
      </trkpt>
      <trkpt lat="48.02559" lon="-4.6106">
        <ele>49.16</ele>
        <time>2017-05-28T14:49:24Z</time>
      </trkpt>
      <trkpt lat="48.02551" lon="-4.61057">
        <ele>50.13</ele>
        <time>2017-05-28T14:49:38Z</time>
      </trkpt>
      <trkpt lat="48.02544" lon="-4.6105">
        <ele>49.16</ele>
        <time>2017-05-28T14:49:54Z</time>
      </trkpt>
    </trkseg>
  </trk>
</gpx>